<?xml version="1.0" encoding="UTF-8" standalone="no" ?>
<gpx xmlns="http://www.topografix.com/GPX/1/1" xmlns:xsi="http://www.w3.org/2001/XMLSchema-instance" xsi:schemaLocation="http://www.topografix.com/GPX/1/1 http://www.topografix.com/GPX/1/1/gpx.xsd" version="1.1" creator="VisuGPX - https://www.visugpx.com">
  <metadata>
    <name>VTT 13 mars 2019</name>
    <desc><![CDATA[VTT 13 mars 2019 vers mont Aurelien]]></desc>
  </metadata>
  <trk>
    <name><![CDATA[Nans]]></name>
    <trkseg>
      <trkpt lat="43.36634" lon="5.78065">
        <ele>434</ele>
        <time>2019-01-04T13:24:23Z</time>
      </trkpt>
      <trkpt lat="43.36634" lon="5.78065">
        <ele>430</ele>
        <time>2019-01-04T13:24:40Z</time>
      </trkpt>
      <trkpt lat="43.36632" lon="5.7806">
        <ele>425</ele>
        <time>2019-01-04T13:24:44Z</time>
      </trkpt>
      <trkpt lat="43.36632" lon="5.78065">
        <ele>419</ele>
        <time>2019-01-04T13:25:10Z</time>
      </trkpt>
      <trkpt lat="43.36637" lon="5.78067">
        <ele>425</ele>
        <time>2019-01-04T13:25:14Z</time>
      </trkpt>
      <trkpt lat="43.36644" lon="5.78063">
        <ele>424</ele>
        <time>2019-01-04T13:25:15Z</time>
      </trkpt>
      <trkpt lat="43.36649" lon="5.78064">
        <ele>422</ele>
        <time>2019-01-04T13:25:40Z</time>
      </trkpt>
      <trkpt lat="43.36632" lon="5.78067">
        <ele>420</ele>
        <time>2019-01-04T13:25:44Z</time>
      </trkpt>
      <trkpt lat="43.36642" lon="5.78072">
        <ele>424</ele>
        <time>2019-01-04T13:25:45Z</time>
      </trkpt>
      <trkpt lat="43.36642" lon="5.78069">
        <ele>425</ele>
        <time>2019-01-04T13:26:10Z</time>
      </trkpt>
      <trkpt lat="43.36639" lon="5.78071">
        <ele>433</ele>
        <time>2019-01-04T13:26:14Z</time>
      </trkpt>
      <trkpt lat="43.36642" lon="5.78066">
        <ele>437</ele>
        <time>2019-01-04T13:26:21Z</time>
      </trkpt>
      <trkpt lat="43.36646" lon="5.7807">
        <ele>442</ele>
        <time>2019-01-04T13:26:35Z</time>
      </trkpt>
      <trkpt lat="43.36651" lon="5.78071">
        <ele>442</ele>
        <time>2019-01-04T13:26:40Z</time>
      </trkpt>
      <trkpt lat="43.36655" lon="5.78074">
        <ele>440</ele>
        <time>2019-01-04T13:26:47Z</time>
      </trkpt>
      <trkpt lat="43.3666" lon="5.78074">
        <ele>435</ele>
        <time>2019-01-04T13:26:52Z</time>
      </trkpt>
      <trkpt lat="43.36665" lon="5.78073">
        <ele>432</ele>
        <time>2019-01-04T13:26:58Z</time>
      </trkpt>
      <trkpt lat="43.36669" lon="5.78075">
        <ele>430</ele>
        <time>2019-01-04T13:27:05Z</time>
      </trkpt>
      <trkpt lat="43.36675" lon="5.78077">
        <ele>429</ele>
        <time>2019-01-04T13:27:12Z</time>
      </trkpt>
      <trkpt lat="43.36679" lon="5.78079">
        <ele>429</ele>
        <time>2019-01-04T13:27:17Z</time>
      </trkpt>
      <trkpt lat="43.36684" lon="5.78081">
        <ele>428</ele>
        <time>2019-01-04T13:27:23Z</time>
      </trkpt>
      <trkpt lat="43.36688" lon="5.78084">
        <ele>428</ele>
        <time>2019-01-04T13:27:28Z</time>
      </trkpt>
      <trkpt lat="43.36693" lon="5.78087">
        <ele>428</ele>
        <time>2019-01-04T13:27:33Z</time>
      </trkpt>
      <trkpt lat="43.36697" lon="5.78089">
        <ele>427</ele>
        <time>2019-01-04T13:27:37Z</time>
      </trkpt>
      <trkpt lat="43.36702" lon="5.78091">
        <ele>427</ele>
        <time>2019-01-04T13:27:42Z</time>
      </trkpt>
      <trkpt lat="43.36707" lon="5.78094">
        <ele>426</ele>
        <time>2019-01-04T13:27:48Z</time>
      </trkpt>
      <trkpt lat="43.36712" lon="5.78096">
        <ele>426</ele>
        <time>2019-01-04T13:27:54Z</time>
      </trkpt>
      <trkpt lat="43.36717" lon="5.78097">
        <ele>425</ele>
        <time>2019-01-04T13:28:02Z</time>
      </trkpt>
      <trkpt lat="43.36712" lon="5.78097">
        <ele>424</ele>
        <time>2019-01-04T13:28:19Z</time>
      </trkpt>
      <trkpt lat="43.36707" lon="5.78095">
        <ele>424</ele>
        <time>2019-01-04T13:28:24Z</time>
      </trkpt>
      <trkpt lat="43.36702" lon="5.78091">
        <ele>424</ele>
        <time>2019-01-04T13:28:30Z</time>
      </trkpt>
      <trkpt lat="43.36697" lon="5.78088">
        <ele>424</ele>
        <time>2019-01-04T13:28:36Z</time>
      </trkpt>
      <trkpt lat="43.36693" lon="5.78087">
        <ele>424</ele>
        <time>2019-01-04T13:28:41Z</time>
      </trkpt>
      <trkpt lat="43.36689" lon="5.78083">
        <ele>424</ele>
        <time>2019-01-04T13:28:47Z</time>
      </trkpt>
      <trkpt lat="43.36684" lon="5.7808">
        <ele>424</ele>
        <time>2019-01-04T13:28:52Z</time>
      </trkpt>
      <trkpt lat="43.36678" lon="5.78078">
        <ele>425</ele>
        <time>2019-01-04T13:28:57Z</time>
      </trkpt>
      <trkpt lat="43.36673" lon="5.78077">
        <ele>426</ele>
        <time>2019-01-04T13:29:02Z</time>
      </trkpt>
      <trkpt lat="43.36668" lon="5.78075">
        <ele>426</ele>
        <time>2019-01-04T13:29:07Z</time>
      </trkpt>
      <trkpt lat="43.36663" lon="5.78074">
        <ele>427</ele>
        <time>2019-01-04T13:29:12Z</time>
      </trkpt>
      <trkpt lat="43.36657" lon="5.78073">
        <ele>427</ele>
        <time>2019-01-04T13:29:17Z</time>
      </trkpt>
      <trkpt lat="43.36652" lon="5.78072">
        <ele>427</ele>
        <time>2019-01-04T13:29:22Z</time>
      </trkpt>
      <trkpt lat="43.36647" lon="5.78072">
        <ele>427</ele>
        <time>2019-01-04T13:29:27Z</time>
      </trkpt>
      <trkpt lat="43.36642" lon="5.78069">
        <ele>428</ele>
        <time>2019-01-04T13:29:32Z</time>
      </trkpt>
      <trkpt lat="43.36637" lon="5.78067">
        <ele>427</ele>
        <time>2019-01-04T13:29:40Z</time>
      </trkpt>
      <trkpt lat="43.36632" lon="5.78068">
        <ele>427</ele>
        <time>2019-01-04T13:29:46Z</time>
      </trkpt>
      <trkpt lat="43.36626" lon="5.78067">
        <ele>427</ele>
        <time>2019-01-04T13:29:51Z</time>
      </trkpt>
      <trkpt lat="43.36622" lon="5.78067">
        <ele>427</ele>
        <time>2019-01-04T13:29:57Z</time>
      </trkpt>
      <trkpt lat="43.36617" lon="5.78069">
        <ele>427</ele>
        <time>2019-01-04T13:30:02Z</time>
      </trkpt>
      <trkpt lat="43.36612" lon="5.78069">
        <ele>427</ele>
        <time>2019-01-04T13:30:07Z</time>
      </trkpt>
      <trkpt lat="43.36606" lon="5.78068">
        <ele>427</ele>
        <time>2019-01-04T13:30:12Z</time>
      </trkpt>
      <trkpt lat="43.36601" lon="5.78067">
        <ele>427</ele>
        <time>2019-01-04T13:30:17Z</time>
      </trkpt>
      <trkpt lat="43.36596" lon="5.78066">
        <ele>427</ele>
        <time>2019-01-04T13:30:22Z</time>
      </trkpt>
      <trkpt lat="43.36591" lon="5.78065">
        <ele>428</ele>
        <time>2019-01-04T13:30:28Z</time>
      </trkpt>
      <trkpt lat="43.36586" lon="5.78064">
        <ele>428</ele>
        <time>2019-01-04T13:30:34Z</time>
      </trkpt>
      <trkpt lat="43.36581" lon="5.78061">
        <ele>428</ele>
        <time>2019-01-04T13:30:38Z</time>
      </trkpt>
      <trkpt lat="43.36576" lon="5.78058">
        <ele>429</ele>
        <time>2019-01-04T13:30:42Z</time>
      </trkpt>
      <trkpt lat="43.36572" lon="5.78055">
        <ele>430</ele>
        <time>2019-01-04T13:30:46Z</time>
      </trkpt>
      <trkpt lat="43.36567" lon="5.78052">
        <ele>431</ele>
        <time>2019-01-04T13:30:50Z</time>
      </trkpt>
      <trkpt lat="43.36562" lon="5.7805">
        <ele>431</ele>
        <time>2019-01-04T13:30:53Z</time>
      </trkpt>
      <trkpt lat="43.36558" lon="5.78046">
        <ele>432</ele>
        <time>2019-01-04T13:30:57Z</time>
      </trkpt>
      <trkpt lat="43.36553" lon="5.78044">
        <ele>433</ele>
        <time>2019-01-04T13:31:01Z</time>
      </trkpt>
      <trkpt lat="43.36548" lon="5.78042">
        <ele>433</ele>
        <time>2019-01-04T13:31:05Z</time>
      </trkpt>
      <trkpt lat="43.36545" lon="5.78037">
        <ele>433</ele>
        <time>2019-01-04T13:31:08Z</time>
      </trkpt>
      <trkpt lat="43.36541" lon="5.78032">
        <ele>433</ele>
        <time>2019-01-04T13:31:12Z</time>
      </trkpt>
      <trkpt lat="43.36537" lon="5.78027">
        <ele>434</ele>
        <time>2019-01-04T13:31:18Z</time>
      </trkpt>
      <trkpt lat="43.36533" lon="5.78025">
        <ele>434</ele>
        <time>2019-01-04T13:31:21Z</time>
      </trkpt>
      <trkpt lat="43.36529" lon="5.78022">
        <ele>434</ele>
        <time>2019-01-04T13:31:26Z</time>
      </trkpt>
      <trkpt lat="43.36526" lon="5.78016">
        <ele>436</ele>
        <time>2019-01-04T13:31:33Z</time>
      </trkpt>
      <trkpt lat="43.36522" lon="5.78012">
        <ele>436</ele>
        <time>2019-01-04T13:31:38Z</time>
      </trkpt>
      <trkpt lat="43.36518" lon="5.78007">
        <ele>438</ele>
        <time>2019-01-04T13:31:43Z</time>
      </trkpt>
      <trkpt lat="43.36514" lon="5.78005">
        <ele>439</ele>
        <time>2019-01-04T13:31:47Z</time>
      </trkpt>
      <trkpt lat="43.36509" lon="5.78">
        <ele>441</ele>
        <time>2019-01-04T13:31:52Z</time>
      </trkpt>
      <trkpt lat="43.36505" lon="5.77995">
        <ele>442</ele>
        <time>2019-01-04T13:31:56Z</time>
      </trkpt>
      <trkpt lat="43.36503" lon="5.77989">
        <ele>443</ele>
        <time>2019-01-04T13:32:00Z</time>
      </trkpt>
      <trkpt lat="43.365" lon="5.77983">
        <ele>443</ele>
        <time>2019-01-04T13:32:05Z</time>
      </trkpt>
      <trkpt lat="43.36495" lon="5.7798">
        <ele>444</ele>
        <time>2019-01-04T13:32:09Z</time>
      </trkpt>
      <trkpt lat="43.36491" lon="5.77975">
        <ele>444</ele>
        <time>2019-01-04T13:32:14Z</time>
      </trkpt>
      <trkpt lat="43.36486" lon="5.77972">
        <ele>445</ele>
        <time>2019-01-04T13:32:19Z</time>
      </trkpt>
      <trkpt lat="43.36482" lon="5.77967">
        <ele>446</ele>
        <time>2019-01-04T13:32:25Z</time>
      </trkpt>
      <trkpt lat="43.36477" lon="5.77965">
        <ele>447</ele>
        <time>2019-01-04T13:32:32Z</time>
      </trkpt>
      <trkpt lat="43.36471" lon="5.77963">
        <ele>448</ele>
        <time>2019-01-04T13:32:38Z</time>
      </trkpt>
      <trkpt lat="43.36466" lon="5.77961">
        <ele>449</ele>
        <time>2019-01-04T13:32:43Z</time>
      </trkpt>
      <trkpt lat="43.36461" lon="5.77959">
        <ele>450</ele>
        <time>2019-01-04T13:32:48Z</time>
      </trkpt>
      <trkpt lat="43.36456" lon="5.77955">
        <ele>451</ele>
        <time>2019-01-04T13:32:53Z</time>
      </trkpt>
      <trkpt lat="43.36451" lon="5.77952">
        <ele>452</ele>
        <time>2019-01-04T13:32:59Z</time>
      </trkpt>
      <trkpt lat="43.36447" lon="5.77951">
        <ele>454</ele>
        <time>2019-01-04T13:33:05Z</time>
      </trkpt>
      <trkpt lat="43.36442" lon="5.77946">
        <ele>454</ele>
        <time>2019-01-04T13:33:09Z</time>
      </trkpt>
      <trkpt lat="43.36438" lon="5.77943">
        <ele>455</ele>
        <time>2019-01-04T13:33:13Z</time>
      </trkpt>
      <trkpt lat="43.36433" lon="5.7794">
        <ele>456</ele>
        <time>2019-01-04T13:33:17Z</time>
      </trkpt>
      <trkpt lat="43.36429" lon="5.77935">
        <ele>457</ele>
        <time>2019-01-04T13:33:24Z</time>
      </trkpt>
      <trkpt lat="43.36425" lon="5.77932">
        <ele>457</ele>
        <time>2019-01-04T13:33:30Z</time>
      </trkpt>
      <trkpt lat="43.36419" lon="5.77926">
        <ele>457</ele>
        <time>2019-01-04T13:33:36Z</time>
      </trkpt>
      <trkpt lat="43.36414" lon="5.77922">
        <ele>458</ele>
        <time>2019-01-04T13:33:42Z</time>
      </trkpt>
      <trkpt lat="43.36409" lon="5.7792">
        <ele>459</ele>
        <time>2019-01-04T13:33:46Z</time>
      </trkpt>
      <trkpt lat="43.36406" lon="5.77915">
        <ele>460</ele>
        <time>2019-01-04T13:33:51Z</time>
      </trkpt>
      <trkpt lat="43.36402" lon="5.77909">
        <ele>461</ele>
        <time>2019-01-04T13:33:57Z</time>
      </trkpt>
      <trkpt lat="43.36398" lon="5.77906">
        <ele>463</ele>
        <time>2019-01-04T13:34:00Z</time>
      </trkpt>
      <trkpt lat="43.36394" lon="5.77901">
        <ele>464</ele>
        <time>2019-01-04T13:34:04Z</time>
      </trkpt>
      <trkpt lat="43.36389" lon="5.77897">
        <ele>465</ele>
        <time>2019-01-04T13:34:09Z</time>
      </trkpt>
      <trkpt lat="43.36385" lon="5.77894">
        <ele>466</ele>
        <time>2019-01-04T13:34:14Z</time>
      </trkpt>
      <trkpt lat="43.36379" lon="5.77891">
        <ele>466</ele>
        <time>2019-01-04T13:34:18Z</time>
      </trkpt>
      <trkpt lat="43.36375" lon="5.77888">
        <ele>466</ele>
        <time>2019-01-04T13:34:22Z</time>
      </trkpt>
      <trkpt lat="43.36372" lon="5.77884">
        <ele>466</ele>
        <time>2019-01-04T13:34:26Z</time>
      </trkpt>
      <trkpt lat="43.36368" lon="5.77878">
        <ele>466</ele>
        <time>2019-01-04T13:34:30Z</time>
      </trkpt>
      <trkpt lat="43.36364" lon="5.77875">
        <ele>466</ele>
        <time>2019-01-04T13:34:34Z</time>
      </trkpt>
      <trkpt lat="43.36359" lon="5.7787">
        <ele>466</ele>
        <time>2019-01-04T13:34:39Z</time>
      </trkpt>
      <trkpt lat="43.36355" lon="5.77866">
        <ele>466</ele>
        <time>2019-01-04T13:34:43Z</time>
      </trkpt>
      <trkpt lat="43.36351" lon="5.77865">
        <ele>467</ele>
        <time>2019-01-04T13:34:48Z</time>
      </trkpt>
      <trkpt lat="43.36346" lon="5.77864">
        <ele>467</ele>
        <time>2019-01-04T13:34:51Z</time>
      </trkpt>
      <trkpt lat="43.36341" lon="5.77862">
        <ele>467</ele>
        <time>2019-01-04T13:34:55Z</time>
      </trkpt>
      <trkpt lat="43.36337" lon="5.77858">
        <ele>466</ele>
        <time>2019-01-04T13:35:00Z</time>
      </trkpt>
      <trkpt lat="43.36332" lon="5.77855">
        <ele>466</ele>
        <time>2019-01-04T13:35:05Z</time>
      </trkpt>
      <trkpt lat="43.36326" lon="5.77853">
        <ele>466</ele>
        <time>2019-01-04T13:35:11Z</time>
      </trkpt>
      <trkpt lat="43.36321" lon="5.77851">
        <ele>465</ele>
        <time>2019-01-04T13:35:15Z</time>
      </trkpt>
      <trkpt lat="43.36316" lon="5.7785">
        <ele>465</ele>
        <time>2019-01-04T13:35:19Z</time>
      </trkpt>
      <trkpt lat="43.36311" lon="5.77849">
        <ele>465</ele>
        <time>2019-01-04T13:35:24Z</time>
      </trkpt>
      <trkpt lat="43.36306" lon="5.77848">
        <ele>465</ele>
        <time>2019-01-04T13:35:29Z</time>
      </trkpt>
      <trkpt lat="43.36302" lon="5.77849">
        <ele>465</ele>
        <time>2019-01-04T13:35:32Z</time>
      </trkpt>
      <trkpt lat="43.36297" lon="5.77848">
        <ele>465</ele>
        <time>2019-01-04T13:35:36Z</time>
      </trkpt>
      <trkpt lat="43.36291" lon="5.77848">
        <ele>465</ele>
        <time>2019-01-04T13:35:40Z</time>
      </trkpt>
      <trkpt lat="43.36285" lon="5.77849">
        <ele>465</ele>
        <time>2019-01-04T13:35:45Z</time>
      </trkpt>
      <trkpt lat="43.3628" lon="5.77848">
        <ele>466</ele>
        <time>2019-01-04T13:35:50Z</time>
      </trkpt>
      <trkpt lat="43.36275" lon="5.77847">
        <ele>466</ele>
        <time>2019-01-04T13:35:55Z</time>
      </trkpt>
      <trkpt lat="43.36271" lon="5.77848">
        <ele>467</ele>
        <time>2019-01-04T13:35:58Z</time>
      </trkpt>
      <trkpt lat="43.36266" lon="5.77849">
        <ele>467</ele>
        <time>2019-01-04T13:36:02Z</time>
      </trkpt>
      <trkpt lat="43.3626" lon="5.7785">
        <ele>468</ele>
        <time>2019-01-04T13:36:07Z</time>
      </trkpt>
      <trkpt lat="43.36255" lon="5.77849">
        <ele>468</ele>
        <time>2019-01-04T13:36:12Z</time>
      </trkpt>
      <trkpt lat="43.36249" lon="5.7785">
        <ele>468</ele>
        <time>2019-01-04T13:36:17Z</time>
      </trkpt>
      <trkpt lat="43.36245" lon="5.77851">
        <ele>468</ele>
        <time>2019-01-04T13:36:20Z</time>
      </trkpt>
      <trkpt lat="43.36241" lon="5.77852">
        <ele>468</ele>
        <time>2019-01-04T13:36:36Z</time>
      </trkpt>
      <trkpt lat="43.36222" lon="5.77869">
        <ele>462</ele>
        <time>2019-01-04T13:36:40Z</time>
      </trkpt>
      <trkpt lat="43.36237" lon="5.77855">
        <ele>459</ele>
        <time>2019-01-04T13:36:42Z</time>
      </trkpt>
      <trkpt lat="43.36232" lon="5.77858">
        <ele>455</ele>
        <time>2019-01-04T13:37:00Z</time>
      </trkpt>
      <trkpt lat="43.36228" lon="5.77863">
        <ele>451</ele>
        <time>2019-01-04T13:37:05Z</time>
      </trkpt>
      <trkpt lat="43.36224" lon="5.77867">
        <ele>449</ele>
        <time>2019-01-04T13:37:11Z</time>
      </trkpt>
      <trkpt lat="43.36221" lon="5.77871">
        <ele>451</ele>
        <time>2019-01-04T13:37:18Z</time>
      </trkpt>
      <trkpt lat="43.36216" lon="5.77873">
        <ele>452</ele>
        <time>2019-01-04T13:37:25Z</time>
      </trkpt>
      <trkpt lat="43.36211" lon="5.77877">
        <ele>454</ele>
        <time>2019-01-04T13:37:47Z</time>
      </trkpt>
      <trkpt lat="43.36206" lon="5.77876">
        <ele>457</ele>
        <time>2019-01-04T13:37:53Z</time>
      </trkpt>
      <trkpt lat="43.36201" lon="5.77876">
        <ele>459</ele>
        <time>2019-01-04T13:37:57Z</time>
      </trkpt>
      <trkpt lat="43.36196" lon="5.77875">
        <ele>460</ele>
        <time>2019-01-04T13:38:01Z</time>
      </trkpt>
      <trkpt lat="43.3619" lon="5.77877">
        <ele>462</ele>
        <time>2019-01-04T13:38:05Z</time>
      </trkpt>
      <trkpt lat="43.36186" lon="5.77878">
        <ele>463</ele>
        <time>2019-01-04T13:38:09Z</time>
      </trkpt>
      <trkpt lat="43.3618" lon="5.77879">
        <ele>463</ele>
        <time>2019-01-04T13:38:14Z</time>
      </trkpt>
      <trkpt lat="43.36175" lon="5.7788">
        <ele>464</ele>
        <time>2019-01-04T13:38:18Z</time>
      </trkpt>
      <trkpt lat="43.36169" lon="5.77881">
        <ele>464</ele>
        <time>2019-01-04T13:38:23Z</time>
      </trkpt>
      <trkpt lat="43.36164" lon="5.77883">
        <ele>464</ele>
        <time>2019-01-04T13:38:27Z</time>
      </trkpt>
      <trkpt lat="43.3616" lon="5.77884">
        <ele>464</ele>
        <time>2019-01-04T13:38:31Z</time>
      </trkpt>
      <trkpt lat="43.36154" lon="5.77886">
        <ele>464</ele>
        <time>2019-01-04T13:38:35Z</time>
      </trkpt>
      <trkpt lat="43.3615" lon="5.7789">
        <ele>463</ele>
        <time>2019-01-04T13:38:39Z</time>
      </trkpt>
      <trkpt lat="43.36146" lon="5.77894">
        <ele>464</ele>
        <time>2019-01-04T13:38:46Z</time>
      </trkpt>
      <trkpt lat="43.36142" lon="5.77898">
        <ele>464</ele>
        <time>2019-01-04T13:38:52Z</time>
      </trkpt>
      <trkpt lat="43.36137" lon="5.77901">
        <ele>465</ele>
        <time>2019-01-04T13:38:55Z</time>
      </trkpt>
      <trkpt lat="43.36133" lon="5.77903">
        <ele>465</ele>
        <time>2019-01-04T13:38:58Z</time>
      </trkpt>
      <trkpt lat="43.36129" lon="5.77906">
        <ele>466</ele>
        <time>2019-01-04T13:39:02Z</time>
      </trkpt>
      <trkpt lat="43.36124" lon="5.77907">
        <ele>465</ele>
        <time>2019-01-04T13:39:07Z</time>
      </trkpt>
      <trkpt lat="43.3612" lon="5.7791">
        <ele>465</ele>
        <time>2019-01-04T13:39:10Z</time>
      </trkpt>
      <trkpt lat="43.36115" lon="5.77911">
        <ele>465</ele>
        <time>2019-01-04T13:39:14Z</time>
      </trkpt>
      <trkpt lat="43.36111" lon="5.77912">
        <ele>464</ele>
        <time>2019-01-04T13:39:18Z</time>
      </trkpt>
      <trkpt lat="43.36106" lon="5.77912">
        <ele>464</ele>
        <time>2019-01-04T13:39:23Z</time>
      </trkpt>
      <trkpt lat="43.361" lon="5.77913">
        <ele>464</ele>
        <time>2019-01-04T13:39:29Z</time>
      </trkpt>
      <trkpt lat="43.36095" lon="5.77913">
        <ele>463</ele>
        <time>2019-01-04T13:39:35Z</time>
      </trkpt>
      <trkpt lat="43.36091" lon="5.77915">
        <ele>463</ele>
        <time>2019-01-04T13:39:41Z</time>
      </trkpt>
      <trkpt lat="43.36086" lon="5.77913">
        <ele>463</ele>
        <time>2019-01-04T13:39:44Z</time>
      </trkpt>
      <trkpt lat="43.36081" lon="5.77911">
        <ele>463</ele>
        <time>2019-01-04T13:39:47Z</time>
      </trkpt>
      <trkpt lat="43.36077" lon="5.77907">
        <ele>463</ele>
        <time>2019-01-04T13:39:50Z</time>
      </trkpt>
      <trkpt lat="43.36072" lon="5.77902">
        <ele>464</ele>
        <time>2019-01-04T13:39:55Z</time>
      </trkpt>
      <trkpt lat="43.36069" lon="5.77899">
        <ele>463</ele>
        <time>2019-01-04T13:40:00Z</time>
      </trkpt>
      <trkpt lat="43.36065" lon="5.77894">
        <ele>463</ele>
        <time>2019-01-04T13:40:05Z</time>
      </trkpt>
      <trkpt lat="43.3606" lon="5.7789">
        <ele>464</ele>
        <time>2019-01-04T13:40:10Z</time>
      </trkpt>
      <trkpt lat="43.36056" lon="5.77887">
        <ele>464</ele>
        <time>2019-01-04T13:40:13Z</time>
      </trkpt>
      <trkpt lat="43.36053" lon="5.77881">
        <ele>464</ele>
        <time>2019-01-04T13:40:17Z</time>
      </trkpt>
      <trkpt lat="43.3605" lon="5.77876">
        <ele>465</ele>
        <time>2019-01-04T13:40:20Z</time>
      </trkpt>
      <trkpt lat="43.36048" lon="5.7787">
        <ele>465</ele>
        <time>2019-01-04T13:40:24Z</time>
      </trkpt>
      <trkpt lat="43.36047" lon="5.77863">
        <ele>465</ele>
        <time>2019-01-04T13:40:27Z</time>
      </trkpt>
      <trkpt lat="43.36043" lon="5.77859">
        <ele>465</ele>
        <time>2019-01-04T13:40:31Z</time>
      </trkpt>
      <trkpt lat="43.36039" lon="5.77856">
        <ele>465</ele>
        <time>2019-01-04T13:40:36Z</time>
      </trkpt>
      <trkpt lat="43.36037" lon="5.77851">
        <ele>465</ele>
        <time>2019-01-04T13:40:41Z</time>
      </trkpt>
      <trkpt lat="43.36034" lon="5.77846">
        <ele>465</ele>
        <time>2019-01-04T13:40:45Z</time>
      </trkpt>
      <trkpt lat="43.3603" lon="5.77841">
        <ele>465</ele>
        <time>2019-01-04T13:40:49Z</time>
      </trkpt>
      <trkpt lat="43.36026" lon="5.77835">
        <ele>465</ele>
        <time>2019-01-04T13:40:54Z</time>
      </trkpt>
      <trkpt lat="43.36021" lon="5.77831">
        <ele>465</ele>
        <time>2019-01-04T13:40:58Z</time>
      </trkpt>
      <trkpt lat="43.36018" lon="5.77827">
        <ele>466</ele>
        <time>2019-01-04T13:41:02Z</time>
      </trkpt>
      <trkpt lat="43.36014" lon="5.77824">
        <ele>466</ele>
        <time>2019-01-04T13:41:06Z</time>
      </trkpt>
      <trkpt lat="43.36011" lon="5.77819">
        <ele>467</ele>
        <time>2019-01-04T13:41:10Z</time>
      </trkpt>
      <trkpt lat="43.36006" lon="5.77816">
        <ele>467</ele>
        <time>2019-01-04T13:41:14Z</time>
      </trkpt>
      <trkpt lat="43.36001" lon="5.77815">
        <ele>467</ele>
        <time>2019-01-04T13:41:17Z</time>
      </trkpt>
      <trkpt lat="43.35996" lon="5.77811">
        <ele>466</ele>
        <time>2019-01-04T13:41:21Z</time>
      </trkpt>
      <trkpt lat="43.35991" lon="5.77809">
        <ele>464</ele>
        <time>2019-01-04T13:41:27Z</time>
      </trkpt>
      <trkpt lat="43.35987" lon="5.77805">
        <ele>463</ele>
        <time>2019-01-04T13:41:32Z</time>
      </trkpt>
      <trkpt lat="43.35983" lon="5.77802">
        <ele>460</ele>
        <time>2019-01-04T13:41:35Z</time>
      </trkpt>
      <trkpt lat="43.35979" lon="5.77798">
        <ele>458</ele>
        <time>2019-01-04T13:41:38Z</time>
      </trkpt>
      <trkpt lat="43.35976" lon="5.77794">
        <ele>457</ele>
        <time>2019-01-04T13:41:41Z</time>
      </trkpt>
      <trkpt lat="43.35972" lon="5.7779">
        <ele>456</ele>
        <time>2019-01-04T13:41:45Z</time>
      </trkpt>
      <trkpt lat="43.35968" lon="5.77786">
        <ele>456</ele>
        <time>2019-01-04T13:41:52Z</time>
      </trkpt>
      <trkpt lat="43.35963" lon="5.77783">
        <ele>456</ele>
        <time>2019-01-04T13:41:56Z</time>
      </trkpt>
      <trkpt lat="43.35959" lon="5.77777">
        <ele>457</ele>
        <time>2019-01-04T13:42:00Z</time>
      </trkpt>
      <trkpt lat="43.35955" lon="5.77773">
        <ele>457</ele>
        <time>2019-01-04T13:42:04Z</time>
      </trkpt>
      <trkpt lat="43.35951" lon="5.77768">
        <ele>458</ele>
        <time>2019-01-04T13:42:08Z</time>
      </trkpt>
      <trkpt lat="43.35947" lon="5.77765">
        <ele>458</ele>
        <time>2019-01-04T13:42:12Z</time>
      </trkpt>
      <trkpt lat="43.35943" lon="5.7776">
        <ele>459</ele>
        <time>2019-01-04T13:42:16Z</time>
      </trkpt>
      <trkpt lat="43.35939" lon="5.77756">
        <ele>460</ele>
        <time>2019-01-04T13:42:20Z</time>
      </trkpt>
      <trkpt lat="43.35934" lon="5.77752">
        <ele>461</ele>
        <time>2019-01-04T13:42:24Z</time>
      </trkpt>
      <trkpt lat="43.35931" lon="5.77749">
        <ele>462</ele>
        <time>2019-01-04T13:42:28Z</time>
      </trkpt>
      <trkpt lat="43.35926" lon="5.77747">
        <ele>462</ele>
        <time>2019-01-04T13:42:32Z</time>
      </trkpt>
      <trkpt lat="43.35921" lon="5.77745">
        <ele>462</ele>
        <time>2019-01-04T13:42:36Z</time>
      </trkpt>
      <trkpt lat="43.35917" lon="5.77743">
        <ele>462</ele>
        <time>2019-01-04T13:42:40Z</time>
      </trkpt>
      <trkpt lat="43.35911" lon="5.77741">
        <ele>462</ele>
        <time>2019-01-04T13:42:45Z</time>
      </trkpt>
      <trkpt lat="43.35906" lon="5.77739">
        <ele>461</ele>
        <time>2019-01-04T13:42:51Z</time>
      </trkpt>
      <trkpt lat="43.35902" lon="5.7774">
        <ele>461</ele>
        <time>2019-01-04T13:42:56Z</time>
      </trkpt>
      <trkpt lat="43.35898" lon="5.77737">
        <ele>462</ele>
        <time>2019-01-04T13:43:00Z</time>
      </trkpt>
      <trkpt lat="43.35893" lon="5.77735">
        <ele>463</ele>
        <time>2019-01-04T13:43:03Z</time>
      </trkpt>
      <trkpt lat="43.35888" lon="5.77733">
        <ele>464</ele>
        <time>2019-01-04T13:43:07Z</time>
      </trkpt>
      <trkpt lat="43.35883" lon="5.77731">
        <ele>465</ele>
        <time>2019-01-04T13:43:10Z</time>
      </trkpt>
      <trkpt lat="43.35878" lon="5.77728">
        <ele>465</ele>
        <time>2019-01-04T13:43:14Z</time>
      </trkpt>
      <trkpt lat="43.35875" lon="5.77724">
        <ele>466</ele>
        <time>2019-01-04T13:43:18Z</time>
      </trkpt>
      <trkpt lat="43.3587" lon="5.77722">
        <ele>467</ele>
        <time>2019-01-04T13:43:22Z</time>
      </trkpt>
      <trkpt lat="43.35865" lon="5.77722">
        <ele>467</ele>
        <time>2019-01-04T13:43:26Z</time>
      </trkpt>
      <trkpt lat="43.35859" lon="5.77719">
        <ele>467</ele>
        <time>2019-01-04T13:43:31Z</time>
      </trkpt>
      <trkpt lat="43.35854" lon="5.77719">
        <ele>467</ele>
        <time>2019-01-04T13:43:35Z</time>
      </trkpt>
      <trkpt lat="43.3585" lon="5.77717">
        <ele>466</ele>
        <time>2019-01-04T13:43:39Z</time>
      </trkpt>
      <trkpt lat="43.35845" lon="5.77717">
        <ele>465</ele>
        <time>2019-01-04T13:43:43Z</time>
      </trkpt>
      <trkpt lat="43.35841" lon="5.77717">
        <ele>464</ele>
        <time>2019-01-04T13:43:46Z</time>
      </trkpt>
      <trkpt lat="43.35836" lon="5.77715">
        <ele>463</ele>
        <time>2019-01-04T13:43:50Z</time>
      </trkpt>
      <trkpt lat="43.3583" lon="5.77715">
        <ele>461</ele>
        <time>2019-01-04T13:43:54Z</time>
      </trkpt>
      <trkpt lat="43.35825" lon="5.77713">
        <ele>460</ele>
        <time>2019-01-04T13:43:58Z</time>
      </trkpt>
      <trkpt lat="43.3582" lon="5.77715">
        <ele>459</ele>
        <time>2019-01-04T13:44:02Z</time>
      </trkpt>
      <trkpt lat="43.35815" lon="5.77713">
        <ele>458</ele>
        <time>2019-01-04T13:44:06Z</time>
      </trkpt>
      <trkpt lat="43.3581" lon="5.77713">
        <ele>457</ele>
        <time>2019-01-04T13:44:09Z</time>
      </trkpt>
      <trkpt lat="43.35805" lon="5.77713">
        <ele>457</ele>
        <time>2019-01-04T13:44:12Z</time>
      </trkpt>
      <trkpt lat="43.358" lon="5.77715">
        <ele>456</ele>
        <time>2019-01-04T13:44:16Z</time>
      </trkpt>
      <trkpt lat="43.35794" lon="5.77714">
        <ele>456</ele>
        <time>2019-01-04T13:44:20Z</time>
      </trkpt>
      <trkpt lat="43.35789" lon="5.77713">
        <ele>455</ele>
        <time>2019-01-04T13:44:25Z</time>
      </trkpt>
      <trkpt lat="43.35785" lon="5.77711">
        <ele>454</ele>
        <time>2019-01-04T13:44:29Z</time>
      </trkpt>
      <trkpt lat="43.3578" lon="5.77709">
        <ele>454</ele>
        <time>2019-01-04T13:44:33Z</time>
      </trkpt>
      <trkpt lat="43.35775" lon="5.77708">
        <ele>454</ele>
        <time>2019-01-04T13:44:40Z</time>
      </trkpt>
      <trkpt lat="43.3577" lon="5.77707">
        <ele>454</ele>
        <time>2019-01-04T13:44:45Z</time>
      </trkpt>
      <trkpt lat="43.35766" lon="5.77705">
        <ele>454</ele>
        <time>2019-01-04T13:44:49Z</time>
      </trkpt>
      <trkpt lat="43.35762" lon="5.777">
        <ele>454</ele>
        <time>2019-01-04T13:44:55Z</time>
      </trkpt>
      <trkpt lat="43.35755" lon="5.77698">
        <ele>454</ele>
        <time>2019-01-04T13:45:00Z</time>
      </trkpt>
      <trkpt lat="43.3575" lon="5.77698">
        <ele>454</ele>
        <time>2019-01-04T13:45:03Z</time>
      </trkpt>
      <trkpt lat="43.35745" lon="5.77695">
        <ele>455</ele>
        <time>2019-01-04T13:45:08Z</time>
      </trkpt>
      <trkpt lat="43.3574" lon="5.77692">
        <ele>455</ele>
        <time>2019-01-04T13:45:12Z</time>
      </trkpt>
      <trkpt lat="43.35736" lon="5.77688">
        <ele>456</ele>
        <time>2019-01-04T13:45:16Z</time>
      </trkpt>
      <trkpt lat="43.35731" lon="5.77691">
        <ele>456</ele>
        <time>2019-01-04T13:45:21Z</time>
      </trkpt>
      <trkpt lat="43.3573" lon="5.77698">
        <ele>454</ele>
        <time>2019-01-04T13:45:27Z</time>
      </trkpt>
      <trkpt lat="43.35725" lon="5.77702">
        <ele>452</ele>
        <time>2019-01-04T13:45:33Z</time>
      </trkpt>
      <trkpt lat="43.3572" lon="5.77703">
        <ele>450</ele>
        <time>2019-01-04T13:45:38Z</time>
      </trkpt>
      <trkpt lat="43.35717" lon="5.77707">
        <ele>448</ele>
        <time>2019-01-04T13:45:42Z</time>
      </trkpt>
      <trkpt lat="43.35712" lon="5.77709">
        <ele>447</ele>
        <time>2019-01-04T13:45:49Z</time>
      </trkpt>
      <trkpt lat="43.35707" lon="5.77712">
        <ele>447</ele>
        <time>2019-01-04T13:45:57Z</time>
      </trkpt>
      <trkpt lat="43.35704" lon="5.77718">
        <ele>447</ele>
        <time>2019-01-04T13:46:04Z</time>
      </trkpt>
      <trkpt lat="43.35704" lon="5.77724">
        <ele>446</ele>
        <time>2019-01-04T13:46:09Z</time>
      </trkpt>
      <trkpt lat="43.35704" lon="5.77732">
        <ele>445</ele>
        <time>2019-01-04T13:46:16Z</time>
      </trkpt>
      <trkpt lat="43.35703" lon="5.77738">
        <ele>444</ele>
        <time>2019-01-04T13:46:20Z</time>
      </trkpt>
      <trkpt lat="43.357" lon="5.77746">
        <ele>442</ele>
        <time>2019-01-04T13:46:26Z</time>
      </trkpt>
      <trkpt lat="43.35699" lon="5.77753">
        <ele>441</ele>
        <time>2019-01-04T13:46:30Z</time>
      </trkpt>
      <trkpt lat="43.35697" lon="5.77759">
        <ele>440</ele>
        <time>2019-01-04T13:46:34Z</time>
      </trkpt>
      <trkpt lat="43.35693" lon="5.77763">
        <ele>440</ele>
        <time>2019-01-04T13:46:38Z</time>
      </trkpt>
      <trkpt lat="43.35689" lon="5.77768">
        <ele>440</ele>
        <time>2019-01-04T13:46:41Z</time>
      </trkpt>
      <trkpt lat="43.35685" lon="5.77772">
        <ele>440</ele>
        <time>2019-01-04T13:46:44Z</time>
      </trkpt>
      <trkpt lat="43.3568" lon="5.77775">
        <ele>440</ele>
        <time>2019-01-04T13:46:49Z</time>
      </trkpt>
      <trkpt lat="43.35675" lon="5.77775">
        <ele>441</ele>
        <time>2019-01-04T13:46:55Z</time>
      </trkpt>
      <trkpt lat="43.35671" lon="5.77773">
        <ele>442</ele>
        <time>2019-01-04T13:46:59Z</time>
      </trkpt>
      <trkpt lat="43.35666" lon="5.77772">
        <ele>442</ele>
        <time>2019-01-04T13:47:04Z</time>
      </trkpt>
      <trkpt lat="43.3566" lon="5.7777">
        <ele>443</ele>
        <time>2019-01-04T13:47:07Z</time>
      </trkpt>
      <trkpt lat="43.35655" lon="5.77769">
        <ele>443</ele>
        <time>2019-01-04T13:47:10Z</time>
      </trkpt>
      <trkpt lat="43.3565" lon="5.77768">
        <ele>443</ele>
        <time>2019-01-04T13:47:15Z</time>
      </trkpt>
      <trkpt lat="43.35645" lon="5.77768">
        <ele>444</ele>
        <time>2019-01-04T13:47:19Z</time>
      </trkpt>
      <trkpt lat="43.35641" lon="5.77768">
        <ele>444</ele>
        <time>2019-01-04T13:47:23Z</time>
      </trkpt>
      <trkpt lat="43.35635" lon="5.77764">
        <ele>445</ele>
        <time>2019-01-04T13:47:28Z</time>
      </trkpt>
      <trkpt lat="43.35631" lon="5.77762">
        <ele>445</ele>
        <time>2019-01-04T13:47:31Z</time>
      </trkpt>
      <trkpt lat="43.35627" lon="5.77758">
        <ele>445</ele>
        <time>2019-01-04T13:47:37Z</time>
      </trkpt>
      <trkpt lat="43.35624" lon="5.77754">
        <ele>445</ele>
        <time>2019-01-04T13:47:41Z</time>
      </trkpt>
      <trkpt lat="43.35619" lon="5.77751">
        <ele>445</ele>
        <time>2019-01-04T13:47:45Z</time>
      </trkpt>
      <trkpt lat="43.35614" lon="5.77751">
        <ele>445</ele>
        <time>2019-01-04T13:47:48Z</time>
      </trkpt>
      <trkpt lat="43.35608" lon="5.77751">
        <ele>445</ele>
        <time>2019-01-04T13:47:51Z</time>
      </trkpt>
      <trkpt lat="43.35604" lon="5.77751">
        <ele>445</ele>
        <time>2019-01-04T13:47:54Z</time>
      </trkpt>
      <trkpt lat="43.356" lon="5.77746">
        <ele>444</ele>
        <time>2019-01-04T13:48:00Z</time>
      </trkpt>
      <trkpt lat="43.35596" lon="5.7774">
        <ele>444</ele>
        <time>2019-01-04T13:48:05Z</time>
      </trkpt>
      <trkpt lat="43.35592" lon="5.77736">
        <ele>443</ele>
        <time>2019-01-04T13:48:09Z</time>
      </trkpt>
      <trkpt lat="43.35586" lon="5.77735">
        <ele>443</ele>
        <time>2019-01-04T13:48:15Z</time>
      </trkpt>
      <trkpt lat="43.35582" lon="5.77731">
        <ele>443</ele>
        <time>2019-01-04T13:48:21Z</time>
      </trkpt>
      <trkpt lat="43.35577" lon="5.77727">
        <ele>444</ele>
        <time>2019-01-04T13:48:25Z</time>
      </trkpt>
      <trkpt lat="43.35573" lon="5.77724">
        <ele>444</ele>
        <time>2019-01-04T13:48:28Z</time>
      </trkpt>
      <trkpt lat="43.35568" lon="5.77723">
        <ele>445</ele>
        <time>2019-01-04T13:48:31Z</time>
      </trkpt>
      <trkpt lat="43.35563" lon="5.77724">
        <ele>444</ele>
        <time>2019-01-04T13:48:36Z</time>
      </trkpt>
      <trkpt lat="43.35562" lon="5.7773">
        <ele>443</ele>
        <time>2019-01-04T13:48:41Z</time>
      </trkpt>
      <trkpt lat="43.35558" lon="5.77732">
        <ele>441</ele>
        <time>2019-01-04T13:48:47Z</time>
      </trkpt>
      <trkpt lat="43.35553" lon="5.77731">
        <ele>439</ele>
        <time>2019-01-04T13:48:50Z</time>
      </trkpt>
      <trkpt lat="43.35548" lon="5.7773">
        <ele>437</ele>
        <time>2019-01-04T13:48:54Z</time>
      </trkpt>
      <trkpt lat="43.35543" lon="5.77728">
        <ele>435</ele>
        <time>2019-01-04T13:48:57Z</time>
      </trkpt>
      <trkpt lat="43.35538" lon="5.77728">
        <ele>435</ele>
        <time>2019-01-04T13:49:00Z</time>
      </trkpt>
      <trkpt lat="43.35532" lon="5.77727">
        <ele>435</ele>
        <time>2019-01-04T13:49:04Z</time>
      </trkpt>
      <trkpt lat="43.35528" lon="5.77728">
        <ele>436</ele>
        <time>2019-01-04T13:49:08Z</time>
      </trkpt>
      <trkpt lat="43.35522" lon="5.77728">
        <ele>436</ele>
        <time>2019-01-04T13:49:12Z</time>
      </trkpt>
      <trkpt lat="43.35516" lon="5.77727">
        <ele>437</ele>
        <time>2019-01-04T13:49:15Z</time>
      </trkpt>
      <trkpt lat="43.35511" lon="5.77726">
        <ele>438</ele>
        <time>2019-01-04T13:49:20Z</time>
      </trkpt>
      <trkpt lat="43.35505" lon="5.77728">
        <ele>439</ele>
        <time>2019-01-04T13:49:23Z</time>
      </trkpt>
      <trkpt lat="43.35501" lon="5.77731">
        <ele>439</ele>
        <time>2019-01-04T13:49:28Z</time>
      </trkpt>
      <trkpt lat="43.35496" lon="5.77732">
        <ele>439</ele>
        <time>2019-01-04T13:49:33Z</time>
      </trkpt>
      <trkpt lat="43.35491" lon="5.77732">
        <ele>438</ele>
        <time>2019-01-04T13:49:38Z</time>
      </trkpt>
      <trkpt lat="43.35488" lon="5.77726">
        <ele>437</ele>
        <time>2019-01-04T13:49:42Z</time>
      </trkpt>
      <trkpt lat="43.35486" lon="5.7772">
        <ele>435</ele>
        <time>2019-01-04T13:49:46Z</time>
      </trkpt>
      <trkpt lat="43.35482" lon="5.77716">
        <ele>434</ele>
        <time>2019-01-04T13:49:50Z</time>
      </trkpt>
      <trkpt lat="43.35479" lon="5.77711">
        <ele>434</ele>
        <time>2019-01-04T13:49:54Z</time>
      </trkpt>
      <trkpt lat="43.35476" lon="5.77706">
        <ele>435</ele>
        <time>2019-01-04T13:49:57Z</time>
      </trkpt>
      <trkpt lat="43.35472" lon="5.77702">
        <ele>435</ele>
        <time>2019-01-04T13:50:00Z</time>
      </trkpt>
      <trkpt lat="43.35468" lon="5.77697">
        <ele>436</ele>
        <time>2019-01-04T13:50:04Z</time>
      </trkpt>
      <trkpt lat="43.35465" lon="5.77692">
        <ele>436</ele>
        <time>2019-01-04T13:50:08Z</time>
      </trkpt>
      <trkpt lat="43.35461" lon="5.77688">
        <ele>438</ele>
        <time>2019-01-04T13:50:16Z</time>
      </trkpt>
      <trkpt lat="43.35455" lon="5.77687">
        <ele>439</ele>
        <time>2019-01-04T13:50:20Z</time>
      </trkpt>
      <trkpt lat="43.3545" lon="5.77686">
        <ele>440</ele>
        <time>2019-01-04T13:50:24Z</time>
      </trkpt>
      <trkpt lat="43.35445" lon="5.77685">
        <ele>440</ele>
        <time>2019-01-04T13:50:28Z</time>
      </trkpt>
      <trkpt lat="43.3544" lon="5.77685">
        <ele>440</ele>
        <time>2019-01-04T13:50:32Z</time>
      </trkpt>
      <trkpt lat="43.35435" lon="5.77684">
        <ele>440</ele>
        <time>2019-01-04T13:50:36Z</time>
      </trkpt>
      <trkpt lat="43.3543" lon="5.77683">
        <ele>441</ele>
        <time>2019-01-04T13:50:40Z</time>
      </trkpt>
      <trkpt lat="43.35424" lon="5.77681">
        <ele>441</ele>
        <time>2019-01-04T13:50:45Z</time>
      </trkpt>
      <trkpt lat="43.3542" lon="5.77681">
        <ele>441</ele>
        <time>2019-01-04T13:50:48Z</time>
      </trkpt>
      <trkpt lat="43.35414" lon="5.77681">
        <ele>442</ele>
        <time>2019-01-04T13:50:52Z</time>
      </trkpt>
      <trkpt lat="43.35408" lon="5.77681">
        <ele>442</ele>
        <time>2019-01-04T13:50:56Z</time>
      </trkpt>
      <trkpt lat="43.35403" lon="5.77681">
        <ele>443</ele>
        <time>2019-01-04T13:51:01Z</time>
      </trkpt>
      <trkpt lat="43.35399" lon="5.77678">
        <ele>443</ele>
        <time>2019-01-04T13:51:06Z</time>
      </trkpt>
      <trkpt lat="43.35394" lon="5.77677">
        <ele>444</ele>
        <time>2019-01-04T13:51:10Z</time>
      </trkpt>
      <trkpt lat="43.35389" lon="5.77675">
        <ele>444</ele>
        <time>2019-01-04T13:51:14Z</time>
      </trkpt>
      <trkpt lat="43.35384" lon="5.77675">
        <ele>444</ele>
        <time>2019-01-04T13:51:19Z</time>
      </trkpt>
      <trkpt lat="43.35379" lon="5.77676">
        <ele>445</ele>
        <time>2019-01-04T13:51:22Z</time>
      </trkpt>
      <trkpt lat="43.35374" lon="5.77674">
        <ele>445</ele>
        <time>2019-01-04T13:51:26Z</time>
      </trkpt>
      <trkpt lat="43.35368" lon="5.77672">
        <ele>446</ele>
        <time>2019-01-04T13:51:35Z</time>
      </trkpt>
      <trkpt lat="43.35363" lon="5.77671">
        <ele>446</ele>
        <time>2019-01-04T13:51:39Z</time>
      </trkpt>
      <trkpt lat="43.35358" lon="5.77667">
        <ele>446</ele>
        <time>2019-01-04T13:51:43Z</time>
      </trkpt>
      <trkpt lat="43.35354" lon="5.77666">
        <ele>446</ele>
        <time>2019-01-04T13:51:47Z</time>
      </trkpt>
      <trkpt lat="43.3535" lon="5.77664">
        <ele>445</ele>
        <time>2019-01-04T13:51:51Z</time>
      </trkpt>
      <trkpt lat="43.35346" lon="5.77662">
        <ele>444</ele>
        <time>2019-01-04T13:51:56Z</time>
      </trkpt>
      <trkpt lat="43.3534" lon="5.7766">
        <ele>444</ele>
        <time>2019-01-04T13:52:00Z</time>
      </trkpt>
      <trkpt lat="43.35336" lon="5.77656">
        <ele>443</ele>
        <time>2019-01-04T13:52:05Z</time>
      </trkpt>
      <trkpt lat="43.35332" lon="5.77653">
        <ele>442</ele>
        <time>2019-01-04T13:52:09Z</time>
      </trkpt>
      <trkpt lat="43.35328" lon="5.77648">
        <ele>442</ele>
        <time>2019-01-04T13:52:13Z</time>
      </trkpt>
      <trkpt lat="43.35324" lon="5.77644">
        <ele>442</ele>
        <time>2019-01-04T13:52:18Z</time>
      </trkpt>
      <trkpt lat="43.35319" lon="5.77641">
        <ele>443</ele>
        <time>2019-01-04T13:52:24Z</time>
      </trkpt>
      <trkpt lat="43.35315" lon="5.77638">
        <ele>443</ele>
        <time>2019-01-04T13:52:28Z</time>
      </trkpt>
      <trkpt lat="43.35311" lon="5.77634">
        <ele>444</ele>
        <time>2019-01-04T13:52:32Z</time>
      </trkpt>
      <trkpt lat="43.35306" lon="5.77633">
        <ele>445</ele>
        <time>2019-01-04T13:52:36Z</time>
      </trkpt>
      <trkpt lat="43.35301" lon="5.77631">
        <ele>445</ele>
        <time>2019-01-04T13:52:40Z</time>
      </trkpt>
      <trkpt lat="43.35298" lon="5.77627">
        <ele>444</ele>
        <time>2019-01-04T13:52:45Z</time>
      </trkpt>
      <trkpt lat="43.35293" lon="5.77624">
        <ele>443</ele>
        <time>2019-01-04T13:52:50Z</time>
      </trkpt>
      <trkpt lat="43.35288" lon="5.77622">
        <ele>442</ele>
        <time>2019-01-04T13:52:54Z</time>
      </trkpt>
      <trkpt lat="43.35284" lon="5.77617">
        <ele>442</ele>
        <time>2019-01-04T13:52:59Z</time>
      </trkpt>
      <trkpt lat="43.3528" lon="5.77613">
        <ele>442</ele>
        <time>2019-01-04T13:53:06Z</time>
      </trkpt>
      <trkpt lat="43.35275" lon="5.77612">
        <ele>442</ele>
        <time>2019-01-04T13:53:11Z</time>
      </trkpt>
      <trkpt lat="43.35271" lon="5.77609">
        <ele>442</ele>
        <time>2019-01-04T13:53:16Z</time>
      </trkpt>
      <trkpt lat="43.35267" lon="5.77605">
        <ele>444</ele>
        <time>2019-01-04T13:53:21Z</time>
      </trkpt>
      <trkpt lat="43.35261" lon="5.77603">
        <ele>444</ele>
        <time>2019-01-04T13:53:38Z</time>
      </trkpt>
      <trkpt lat="43.35257" lon="5.77598">
        <ele>445</ele>
        <time>2019-01-04T13:53:45Z</time>
      </trkpt>
      <trkpt lat="43.35252" lon="5.77595">
        <ele>445</ele>
        <time>2019-01-04T13:53:51Z</time>
      </trkpt>
      <trkpt lat="43.35249" lon="5.77591">
        <ele>445</ele>
        <time>2019-01-04T13:53:58Z</time>
      </trkpt>
      <trkpt lat="43.35244" lon="5.77587">
        <ele>445</ele>
        <time>2019-01-04T13:54:03Z</time>
      </trkpt>
      <trkpt lat="43.3524" lon="5.77583">
        <ele>447</ele>
        <time>2019-01-04T13:54:08Z</time>
      </trkpt>
      <trkpt lat="43.35237" lon="5.77578">
        <ele>448</ele>
        <time>2019-01-04T13:54:15Z</time>
      </trkpt>
      <trkpt lat="43.35233" lon="5.77575">
        <ele>449</ele>
        <time>2019-01-04T13:54:21Z</time>
      </trkpt>
      <trkpt lat="43.35229" lon="5.77573">
        <ele>450</ele>
        <time>2019-01-04T13:54:26Z</time>
      </trkpt>
      <trkpt lat="43.35224" lon="5.77571">
        <ele>451</ele>
        <time>2019-01-04T13:54:31Z</time>
      </trkpt>
      <trkpt lat="43.3522" lon="5.77567">
        <ele>452</ele>
        <time>2019-01-04T13:54:36Z</time>
      </trkpt>
      <trkpt lat="43.35216" lon="5.77562">
        <ele>452</ele>
        <time>2019-01-04T13:54:41Z</time>
      </trkpt>
      <trkpt lat="43.35216" lon="5.77552">
        <ele>452</ele>
        <time>2019-01-04T13:54:54Z</time>
      </trkpt>
      <trkpt lat="43.35212" lon="5.77546">
        <ele>453</ele>
        <time>2019-01-04T13:55:07Z</time>
      </trkpt>
      <trkpt lat="43.35211" lon="5.7754">
        <ele>453</ele>
        <time>2019-01-04T13:55:13Z</time>
      </trkpt>
      <trkpt lat="43.35209" lon="5.77534">
        <ele>453</ele>
        <time>2019-01-04T13:55:18Z</time>
      </trkpt>
      <trkpt lat="43.35206" lon="5.77525">
        <ele>452</ele>
        <time>2019-01-04T13:55:26Z</time>
      </trkpt>
      <trkpt lat="43.35206" lon="5.77518">
        <ele>451</ele>
        <time>2019-01-04T13:55:30Z</time>
      </trkpt>
      <trkpt lat="43.35205" lon="5.77512">
        <ele>451</ele>
        <time>2019-01-04T13:55:34Z</time>
      </trkpt>
      <trkpt lat="43.35205" lon="5.77505">
        <ele>451</ele>
        <time>2019-01-04T13:55:38Z</time>
      </trkpt>
      <trkpt lat="43.35204" lon="5.77499">
        <ele>452</ele>
        <time>2019-01-04T13:55:43Z</time>
      </trkpt>
      <trkpt lat="43.35204" lon="5.77492">
        <ele>452</ele>
        <time>2019-01-04T13:55:47Z</time>
      </trkpt>
      <trkpt lat="43.35203" lon="5.77484">
        <ele>453</ele>
        <time>2019-01-04T13:55:52Z</time>
      </trkpt>
      <trkpt lat="43.35205" lon="5.77478">
        <ele>453</ele>
        <time>2019-01-04T13:55:56Z</time>
      </trkpt>
      <trkpt lat="43.35206" lon="5.7747">
        <ele>452</ele>
        <time>2019-01-04T13:56:01Z</time>
      </trkpt>
      <trkpt lat="43.35207" lon="5.77464">
        <ele>452</ele>
        <time>2019-01-04T13:56:04Z</time>
      </trkpt>
      <trkpt lat="43.35207" lon="5.77456">
        <ele>451</ele>
        <time>2019-01-04T13:56:08Z</time>
      </trkpt>
      <trkpt lat="43.35208" lon="5.77449">
        <ele>450</ele>
        <time>2019-01-04T13:56:12Z</time>
      </trkpt>
      <trkpt lat="43.35208" lon="5.7744">
        <ele>450</ele>
        <time>2019-01-04T13:56:17Z</time>
      </trkpt>
      <trkpt lat="43.35209" lon="5.77434">
        <ele>450</ele>
        <time>2019-01-04T13:56:21Z</time>
      </trkpt>
      <trkpt lat="43.3521" lon="5.77427">
        <ele>450</ele>
        <time>2019-01-04T13:56:27Z</time>
      </trkpt>
      <trkpt lat="43.35211" lon="5.77421">
        <ele>450</ele>
        <time>2019-01-04T13:56:31Z</time>
      </trkpt>
      <trkpt lat="43.35212" lon="5.77414">
        <ele>449</ele>
        <time>2019-01-04T13:56:35Z</time>
      </trkpt>
      <trkpt lat="43.35212" lon="5.77407">
        <ele>448</ele>
        <time>2019-01-04T13:56:39Z</time>
      </trkpt>
      <trkpt lat="43.35212" lon="5.77401">
        <ele>448</ele>
        <time>2019-01-04T13:56:43Z</time>
      </trkpt>
      <trkpt lat="43.35214" lon="5.77393">
        <ele>448</ele>
        <time>2019-01-04T13:56:46Z</time>
      </trkpt>
      <trkpt lat="43.35216" lon="5.77387">
        <ele>449</ele>
        <time>2019-01-04T13:56:49Z</time>
      </trkpt>
      <trkpt lat="43.35217" lon="5.77379">
        <ele>449</ele>
        <time>2019-01-04T13:56:54Z</time>
      </trkpt>
      <trkpt lat="43.35216" lon="5.77372">
        <ele>450</ele>
        <time>2019-01-04T13:57:12Z</time>
      </trkpt>
      <trkpt lat="43.35218" lon="5.77366">
        <ele>451</ele>
        <time>2019-01-04T13:57:16Z</time>
      </trkpt>
      <trkpt lat="43.35219" lon="5.77359">
        <ele>451</ele>
        <time>2019-01-04T13:57:20Z</time>
      </trkpt>
      <trkpt lat="43.35218" lon="5.77352">
        <ele>451</ele>
        <time>2019-01-04T13:57:24Z</time>
      </trkpt>
      <trkpt lat="43.3522" lon="5.77346">
        <ele>452</ele>
        <time>2019-01-04T13:57:28Z</time>
      </trkpt>
      <trkpt lat="43.35221" lon="5.7734">
        <ele>452</ele>
        <time>2019-01-04T13:57:40Z</time>
      </trkpt>
      <trkpt lat="43.35221" lon="5.77333">
        <ele>452</ele>
        <time>2019-01-04T13:57:45Z</time>
      </trkpt>
      <trkpt lat="43.35222" lon="5.77325">
        <ele>452</ele>
        <time>2019-01-04T13:57:55Z</time>
      </trkpt>
      <trkpt lat="43.35221" lon="5.77318">
        <ele>452</ele>
        <time>2019-01-04T13:57:58Z</time>
      </trkpt>
      <trkpt lat="43.35221" lon="5.77312">
        <ele>452</ele>
        <time>2019-01-04T13:58:02Z</time>
      </trkpt>
      <trkpt lat="43.35219" lon="5.77305">
        <ele>452</ele>
        <time>2019-01-04T13:58:06Z</time>
      </trkpt>
      <trkpt lat="43.3522" lon="5.77298">
        <ele>453</ele>
        <time>2019-01-04T13:58:10Z</time>
      </trkpt>
      <trkpt lat="43.3522" lon="5.7729">
        <ele>453</ele>
        <time>2019-01-04T13:58:14Z</time>
      </trkpt>
      <trkpt lat="43.3522" lon="5.77282">
        <ele>453</ele>
        <time>2019-01-04T13:58:18Z</time>
      </trkpt>
      <trkpt lat="43.35221" lon="5.77274">
        <ele>453</ele>
        <time>2019-01-04T13:58:21Z</time>
      </trkpt>
      <trkpt lat="43.3522" lon="5.77266">
        <ele>453</ele>
        <time>2019-01-04T13:58:25Z</time>
      </trkpt>
      <trkpt lat="43.3522" lon="5.77259">
        <ele>453</ele>
        <time>2019-01-04T13:58:29Z</time>
      </trkpt>
      <trkpt lat="43.35218" lon="5.77252">
        <ele>454</ele>
        <time>2019-01-04T13:58:35Z</time>
      </trkpt>
      <trkpt lat="43.35217" lon="5.77244">
        <ele>455</ele>
        <time>2019-01-04T13:58:40Z</time>
      </trkpt>
      <trkpt lat="43.35217" lon="5.77237">
        <ele>456</ele>
        <time>2019-01-04T13:58:45Z</time>
      </trkpt>
      <trkpt lat="43.35216" lon="5.7723">
        <ele>456</ele>
        <time>2019-01-04T13:58:49Z</time>
      </trkpt>
      <trkpt lat="43.35215" lon="5.77222">
        <ele>457</ele>
        <time>2019-01-04T13:58:53Z</time>
      </trkpt>
      <trkpt lat="43.35213" lon="5.77213">
        <ele>457</ele>
        <time>2019-01-04T13:58:57Z</time>
      </trkpt>
      <trkpt lat="43.3521" lon="5.77207">
        <ele>456</ele>
        <time>2019-01-04T13:59:01Z</time>
      </trkpt>
      <trkpt lat="43.35209" lon="5.77201">
        <ele>456</ele>
        <time>2019-01-04T13:59:04Z</time>
      </trkpt>
      <trkpt lat="43.35207" lon="5.77193">
        <ele>456</ele>
        <time>2019-01-04T13:59:08Z</time>
      </trkpt>
      <trkpt lat="43.35207" lon="5.77187">
        <ele>456</ele>
        <time>2019-01-04T13:59:11Z</time>
      </trkpt>
      <trkpt lat="43.35205" lon="5.77181">
        <ele>457</ele>
        <time>2019-01-04T13:59:15Z</time>
      </trkpt>
      <trkpt lat="43.35204" lon="5.77173">
        <ele>458</ele>
        <time>2019-01-04T13:59:20Z</time>
      </trkpt>
      <trkpt lat="43.35205" lon="5.77166">
        <ele>458</ele>
        <time>2019-01-04T13:59:23Z</time>
      </trkpt>
      <trkpt lat="43.35205" lon="5.77158">
        <ele>458</ele>
        <time>2019-01-04T13:59:27Z</time>
      </trkpt>
      <trkpt lat="43.35206" lon="5.7715">
        <ele>458</ele>
        <time>2019-01-04T13:59:31Z</time>
      </trkpt>
      <trkpt lat="43.35206" lon="5.77144">
        <ele>458</ele>
        <time>2019-01-04T13:59:35Z</time>
      </trkpt>
      <trkpt lat="43.35208" lon="5.77137">
        <ele>459</ele>
        <time>2019-01-04T13:59:42Z</time>
      </trkpt>
      <trkpt lat="43.3521" lon="5.7713">
        <ele>460</ele>
        <time>2019-01-04T13:59:45Z</time>
      </trkpt>
      <trkpt lat="43.35209" lon="5.77124">
        <ele>461</ele>
        <time>2019-01-04T13:59:48Z</time>
      </trkpt>
      <trkpt lat="43.3521" lon="5.77117">
        <ele>461</ele>
        <time>2019-01-04T13:59:51Z</time>
      </trkpt>
      <trkpt lat="43.35212" lon="5.77111">
        <ele>461</ele>
        <time>2019-01-04T13:59:55Z</time>
      </trkpt>
      <trkpt lat="43.35215" lon="5.77105">
        <ele>460</ele>
        <time>2019-01-04T13:59:59Z</time>
      </trkpt>
      <trkpt lat="43.3522" lon="5.77104">
        <ele>460</ele>
        <time>2019-01-04T14:00:05Z</time>
      </trkpt>
      <trkpt lat="43.35224" lon="5.77103">
        <ele>460</ele>
        <time>2019-01-04T14:00:11Z</time>
      </trkpt>
      <trkpt lat="43.35228" lon="5.77099">
        <ele>460</ele>
        <time>2019-01-04T14:00:16Z</time>
      </trkpt>
      <trkpt lat="43.35234" lon="5.77096">
        <ele>459</ele>
        <time>2019-01-04T14:00:21Z</time>
      </trkpt>
      <trkpt lat="43.3524" lon="5.77099">
        <ele>459</ele>
        <time>2019-01-04T14:00:25Z</time>
      </trkpt>
      <trkpt lat="43.35244" lon="5.77099">
        <ele>458</ele>
        <time>2019-01-04T14:00:28Z</time>
      </trkpt>
      <trkpt lat="43.3525" lon="5.77098">
        <ele>457</ele>
        <time>2019-01-04T14:00:32Z</time>
      </trkpt>
      <trkpt lat="43.35255" lon="5.77097">
        <ele>457</ele>
        <time>2019-01-04T14:00:35Z</time>
      </trkpt>
      <trkpt lat="43.35261" lon="5.77097">
        <ele>456</ele>
        <time>2019-01-04T14:00:39Z</time>
      </trkpt>
      <trkpt lat="43.35265" lon="5.77097">
        <ele>455</ele>
        <time>2019-01-04T14:00:42Z</time>
      </trkpt>
      <trkpt lat="43.3527" lon="5.77096">
        <ele>455</ele>
        <time>2019-01-04T14:00:46Z</time>
      </trkpt>
      <trkpt lat="43.35275" lon="5.77096">
        <ele>455</ele>
        <time>2019-01-04T14:00:50Z</time>
      </trkpt>
      <trkpt lat="43.3528" lon="5.77094">
        <ele>455</ele>
        <time>2019-01-04T14:00:53Z</time>
      </trkpt>
      <trkpt lat="43.35284" lon="5.77096">
        <ele>455</ele>
        <time>2019-01-04T14:00:56Z</time>
      </trkpt>
      <trkpt lat="43.35289" lon="5.77099">
        <ele>456</ele>
        <time>2019-01-04T14:01:00Z</time>
      </trkpt>
      <trkpt lat="43.35294" lon="5.77098">
        <ele>456</ele>
        <time>2019-01-04T14:01:04Z</time>
      </trkpt>
      <trkpt lat="43.35297" lon="5.77092">
        <ele>456</ele>
        <time>2019-01-04T14:01:11Z</time>
      </trkpt>
      <trkpt lat="43.35299" lon="5.77086">
        <ele>456</ele>
        <time>2019-01-04T14:01:15Z</time>
      </trkpt>
      <trkpt lat="43.35298" lon="5.77079">
        <ele>456</ele>
        <time>2019-01-04T14:01:19Z</time>
      </trkpt>
      <trkpt lat="43.35296" lon="5.77073">
        <ele>455</ele>
        <time>2019-01-04T14:01:23Z</time>
      </trkpt>
      <trkpt lat="43.35293" lon="5.77067">
        <ele>455</ele>
        <time>2019-01-04T14:01:26Z</time>
      </trkpt>
      <trkpt lat="43.35292" lon="5.7706">
        <ele>455</ele>
        <time>2019-01-04T14:01:32Z</time>
      </trkpt>
      <trkpt lat="43.35294" lon="5.77053">
        <ele>454</ele>
        <time>2019-01-04T14:01:37Z</time>
      </trkpt>
      <trkpt lat="43.35298" lon="5.77048">
        <ele>455</ele>
        <time>2019-01-04T14:01:42Z</time>
      </trkpt>
      <trkpt lat="43.353" lon="5.77043">
        <ele>455</ele>
        <time>2019-01-04T14:01:48Z</time>
      </trkpt>
      <trkpt lat="43.35303" lon="5.77037">
        <ele>457</ele>
        <time>2019-01-04T14:01:54Z</time>
      </trkpt>
      <trkpt lat="43.35302" lon="5.77031">
        <ele>458</ele>
        <time>2019-01-04T14:01:59Z</time>
      </trkpt>
      <trkpt lat="43.35299" lon="5.77024">
        <ele>460</ele>
        <time>2019-01-04T14:02:04Z</time>
      </trkpt>
      <trkpt lat="43.35297" lon="5.77017">
        <ele>461</ele>
        <time>2019-01-04T14:02:09Z</time>
      </trkpt>
      <trkpt lat="43.35293" lon="5.77012">
        <ele>462</ele>
        <time>2019-01-04T14:02:15Z</time>
      </trkpt>
      <trkpt lat="43.35289" lon="5.77009">
        <ele>464</ele>
        <time>2019-01-04T14:02:19Z</time>
      </trkpt>
      <trkpt lat="43.35286" lon="5.77003">
        <ele>464</ele>
        <time>2019-01-04T14:02:22Z</time>
      </trkpt>
      <trkpt lat="43.35283" lon="5.76999">
        <ele>465</ele>
        <time>2019-01-04T14:02:27Z</time>
      </trkpt>
      <trkpt lat="43.35279" lon="5.76994">
        <ele>467</ele>
        <time>2019-01-04T14:02:30Z</time>
      </trkpt>
      <trkpt lat="43.35275" lon="5.76989">
        <ele>468</ele>
        <time>2019-01-04T14:02:36Z</time>
      </trkpt>
      <trkpt lat="43.35271" lon="5.76984">
        <ele>468</ele>
        <time>2019-01-04T14:02:41Z</time>
      </trkpt>
      <trkpt lat="43.35268" lon="5.76979">
        <ele>469</ele>
        <time>2019-01-04T14:02:45Z</time>
      </trkpt>
      <trkpt lat="43.35264" lon="5.7697">
        <ele>470</ele>
        <time>2019-01-04T14:02:50Z</time>
      </trkpt>
      <trkpt lat="43.35264" lon="5.76964">
        <ele>470</ele>
        <time>2019-01-04T14:02:54Z</time>
      </trkpt>
      <trkpt lat="43.35261" lon="5.76959">
        <ele>471</ele>
        <time>2019-01-04T14:02:58Z</time>
      </trkpt>
      <trkpt lat="43.35258" lon="5.76954">
        <ele>471</ele>
        <time>2019-01-04T14:03:02Z</time>
      </trkpt>
      <trkpt lat="43.35257" lon="5.76948">
        <ele>472</ele>
        <time>2019-01-04T14:03:06Z</time>
      </trkpt>
      <trkpt lat="43.35253" lon="5.76943">
        <ele>472</ele>
        <time>2019-01-04T14:03:11Z</time>
      </trkpt>
      <trkpt lat="43.3525" lon="5.76938">
        <ele>472</ele>
        <time>2019-01-04T14:03:17Z</time>
      </trkpt>
      <trkpt lat="43.35247" lon="5.7693">
        <ele>473</ele>
        <time>2019-01-04T14:03:22Z</time>
      </trkpt>
      <trkpt lat="43.35245" lon="5.76923">
        <ele>474</ele>
        <time>2019-01-04T14:03:31Z</time>
      </trkpt>
      <trkpt lat="43.35244" lon="5.76917">
        <ele>475</ele>
        <time>2019-01-04T14:03:37Z</time>
      </trkpt>
      <trkpt lat="43.35244" lon="5.7691">
        <ele>477</ele>
        <time>2019-01-04T14:03:43Z</time>
      </trkpt>
      <trkpt lat="43.35243" lon="5.76903">
        <ele>478</ele>
        <time>2019-01-04T14:03:47Z</time>
      </trkpt>
      <trkpt lat="43.35241" lon="5.76897">
        <ele>479</ele>
        <time>2019-01-04T14:03:52Z</time>
      </trkpt>
      <trkpt lat="43.35239" lon="5.7689">
        <ele>479</ele>
        <time>2019-01-04T14:03:57Z</time>
      </trkpt>
      <trkpt lat="43.35239" lon="5.76883">
        <ele>479</ele>
        <time>2019-01-04T14:04:02Z</time>
      </trkpt>
      <trkpt lat="43.35236" lon="5.76877">
        <ele>479</ele>
        <time>2019-01-04T14:04:07Z</time>
      </trkpt>
      <trkpt lat="43.35235" lon="5.7687">
        <ele>480</ele>
        <time>2019-01-04T14:04:11Z</time>
      </trkpt>
      <trkpt lat="43.35231" lon="5.76866">
        <ele>481</ele>
        <time>2019-01-04T14:04:15Z</time>
      </trkpt>
      <trkpt lat="43.35229" lon="5.76859">
        <ele>481</ele>
        <time>2019-01-04T14:04:20Z</time>
      </trkpt>
      <trkpt lat="43.35228" lon="5.76853">
        <ele>482</ele>
        <time>2019-01-04T14:04:24Z</time>
      </trkpt>
      <trkpt lat="43.35224" lon="5.76848">
        <ele>482</ele>
        <time>2019-01-04T14:04:29Z</time>
      </trkpt>
      <trkpt lat="43.35223" lon="5.76841">
        <ele>482</ele>
        <time>2019-01-04T14:04:33Z</time>
      </trkpt>
      <trkpt lat="43.35221" lon="5.76835">
        <ele>482</ele>
        <time>2019-01-04T14:04:39Z</time>
      </trkpt>
      <trkpt lat="43.35204" lon="5.76828">
        <ele>482</ele>
        <time>2019-01-04T14:04:46Z</time>
      </trkpt>
      <trkpt lat="43.35217" lon="5.76821">
        <ele>482</ele>
        <time>2019-01-04T14:04:50Z</time>
      </trkpt>
      <trkpt lat="43.35215" lon="5.76815">
        <ele>482</ele>
        <time>2019-01-04T14:04:55Z</time>
      </trkpt>
      <trkpt lat="43.35215" lon="5.76808">
        <ele>482</ele>
        <time>2019-01-04T14:04:59Z</time>
      </trkpt>
      <trkpt lat="43.35212" lon="5.76799">
        <ele>482</ele>
        <time>2019-01-04T14:05:03Z</time>
      </trkpt>
      <trkpt lat="43.35208" lon="5.76792">
        <ele>483</ele>
        <time>2019-01-04T14:05:08Z</time>
      </trkpt>
      <trkpt lat="43.35206" lon="5.76785">
        <ele>483</ele>
        <time>2019-01-04T14:05:13Z</time>
      </trkpt>
      <trkpt lat="43.35203" lon="5.76778">
        <ele>484</ele>
        <time>2019-01-04T14:05:19Z</time>
      </trkpt>
      <trkpt lat="43.35201" lon="5.76772">
        <ele>484</ele>
        <time>2019-01-04T14:05:23Z</time>
      </trkpt>
      <trkpt lat="43.35199" lon="5.76766">
        <ele>484</ele>
        <time>2019-01-04T14:05:28Z</time>
      </trkpt>
      <trkpt lat="43.35197" lon="5.7676">
        <ele>484</ele>
        <time>2019-01-04T14:05:31Z</time>
      </trkpt>
      <trkpt lat="43.35195" lon="5.76754">
        <ele>484</ele>
        <time>2019-01-04T14:05:36Z</time>
      </trkpt>
      <trkpt lat="43.35195" lon="5.76748">
        <ele>484</ele>
        <time>2019-01-04T14:05:49Z</time>
      </trkpt>
      <trkpt lat="43.35194" lon="5.76742">
        <ele>484</ele>
        <time>2019-01-04T14:05:54Z</time>
      </trkpt>
      <trkpt lat="43.35191" lon="5.76736">
        <ele>484</ele>
        <time>2019-01-04T14:05:58Z</time>
      </trkpt>
      <trkpt lat="43.35189" lon="5.7673">
        <ele>484</ele>
        <time>2019-01-04T14:06:02Z</time>
      </trkpt>
      <trkpt lat="43.35187" lon="5.76724">
        <ele>484</ele>
        <time>2019-01-04T14:06:07Z</time>
      </trkpt>
      <trkpt lat="43.35185" lon="5.76718">
        <ele>484</ele>
        <time>2019-01-04T14:06:12Z</time>
      </trkpt>
      <trkpt lat="43.35181" lon="5.76713">
        <ele>483</ele>
        <time>2019-01-04T14:06:16Z</time>
      </trkpt>
      <trkpt lat="43.35179" lon="5.76707">
        <ele>482</ele>
        <time>2019-01-04T14:06:20Z</time>
      </trkpt>
      <trkpt lat="43.35176" lon="5.76701">
        <ele>481</ele>
        <time>2019-01-04T14:06:25Z</time>
      </trkpt>
      <trkpt lat="43.35173" lon="5.76696">
        <ele>481</ele>
        <time>2019-01-04T14:06:29Z</time>
      </trkpt>
      <trkpt lat="43.35171" lon="5.76689">
        <ele>480</ele>
        <time>2019-01-04T14:06:35Z</time>
      </trkpt>
      <trkpt lat="43.3517" lon="5.76683">
        <ele>480</ele>
        <time>2019-01-04T14:06:39Z</time>
      </trkpt>
      <trkpt lat="43.35168" lon="5.76676">
        <ele>479</ele>
        <time>2019-01-04T14:06:42Z</time>
      </trkpt>
      <trkpt lat="43.35165" lon="5.7667">
        <ele>478</ele>
        <time>2019-01-04T14:06:46Z</time>
      </trkpt>
      <trkpt lat="43.35164" lon="5.76664">
        <ele>478</ele>
        <time>2019-01-04T14:06:50Z</time>
      </trkpt>
      <trkpt lat="43.35163" lon="5.76657">
        <ele>478</ele>
        <time>2019-01-04T14:06:54Z</time>
      </trkpt>
      <trkpt lat="43.35162" lon="5.7665">
        <ele>477</ele>
        <time>2019-01-04T14:06:58Z</time>
      </trkpt>
      <trkpt lat="43.3516" lon="5.76644">
        <ele>477</ele>
        <time>2019-01-04T14:07:03Z</time>
      </trkpt>
      <trkpt lat="43.3516" lon="5.76636">
        <ele>477</ele>
        <time>2019-01-04T14:07:07Z</time>
      </trkpt>
      <trkpt lat="43.3516" lon="5.76628">
        <ele>477</ele>
        <time>2019-01-04T14:07:12Z</time>
      </trkpt>
      <trkpt lat="43.3516" lon="5.7662">
        <ele>478</ele>
        <time>2019-01-04T14:07:16Z</time>
      </trkpt>
      <trkpt lat="43.3516" lon="5.76614">
        <ele>479</ele>
        <time>2019-01-04T14:07:20Z</time>
      </trkpt>
      <trkpt lat="43.3516" lon="5.76606">
        <ele>479</ele>
        <time>2019-01-04T14:07:25Z</time>
      </trkpt>
      <trkpt lat="43.35161" lon="5.766">
        <ele>480</ele>
        <time>2019-01-04T14:07:28Z</time>
      </trkpt>
      <trkpt lat="43.3516" lon="5.76593">
        <ele>480</ele>
        <time>2019-01-04T14:07:31Z</time>
      </trkpt>
      <trkpt lat="43.35159" lon="5.76586">
        <ele>480</ele>
        <time>2019-01-04T14:07:34Z</time>
      </trkpt>
      <trkpt lat="43.35157" lon="5.76579">
        <ele>480</ele>
        <time>2019-01-04T14:07:37Z</time>
      </trkpt>
      <trkpt lat="43.35157" lon="5.76573">
        <ele>480</ele>
        <time>2019-01-04T14:07:42Z</time>
      </trkpt>
      <trkpt lat="43.35157" lon="5.76564">
        <ele>479</ele>
        <time>2019-01-04T14:07:47Z</time>
      </trkpt>
      <trkpt lat="43.35156" lon="5.76556">
        <ele>478</ele>
        <time>2019-01-04T14:07:52Z</time>
      </trkpt>
      <trkpt lat="43.35151" lon="5.76556">
        <ele>478</ele>
        <time>2019-01-04T14:08:02Z</time>
      </trkpt>
      <trkpt lat="43.35152" lon="5.76549">
        <ele>477</ele>
        <time>2019-01-04T14:08:05Z</time>
      </trkpt>
      <trkpt lat="43.35153" lon="5.76541">
        <ele>476</ele>
        <time>2019-01-04T14:08:10Z</time>
      </trkpt>
      <trkpt lat="43.35152" lon="5.76534">
        <ele>476</ele>
        <time>2019-01-04T14:08:14Z</time>
      </trkpt>
      <trkpt lat="43.35152" lon="5.76526">
        <ele>475</ele>
        <time>2019-01-04T14:08:18Z</time>
      </trkpt>
      <trkpt lat="43.35152" lon="5.76519">
        <ele>475</ele>
        <time>2019-01-04T14:08:22Z</time>
      </trkpt>
      <trkpt lat="43.35152" lon="5.76512">
        <ele>474</ele>
        <time>2019-01-04T14:08:26Z</time>
      </trkpt>
      <trkpt lat="43.35152" lon="5.76505">
        <ele>473</ele>
        <time>2019-01-04T14:08:30Z</time>
      </trkpt>
      <trkpt lat="43.35149" lon="5.76499">
        <ele>472</ele>
        <time>2019-01-04T14:08:34Z</time>
      </trkpt>
      <trkpt lat="43.35149" lon="5.76493">
        <ele>471</ele>
        <time>2019-01-04T14:08:37Z</time>
      </trkpt>
      <trkpt lat="43.35149" lon="5.76486">
        <ele>471</ele>
        <time>2019-01-04T14:08:41Z</time>
      </trkpt>
      <trkpt lat="43.35148" lon="5.7648">
        <ele>470</ele>
        <time>2019-01-04T14:08:45Z</time>
      </trkpt>
      <trkpt lat="43.35146" lon="5.76472">
        <ele>471</ele>
        <time>2019-01-04T14:08:50Z</time>
      </trkpt>
      <trkpt lat="43.35146" lon="5.76464">
        <ele>471</ele>
        <time>2019-01-04T14:08:56Z</time>
      </trkpt>
      <trkpt lat="43.35146" lon="5.76457">
        <ele>471</ele>
        <time>2019-01-04T14:09:02Z</time>
      </trkpt>
      <trkpt lat="43.35146" lon="5.76451">
        <ele>471</ele>
        <time>2019-01-04T14:09:06Z</time>
      </trkpt>
      <trkpt lat="43.35147" lon="5.76444">
        <ele>470</ele>
        <time>2019-01-04T14:09:11Z</time>
      </trkpt>
      <trkpt lat="43.35146" lon="5.76438">
        <ele>470</ele>
        <time>2019-01-04T14:09:14Z</time>
      </trkpt>
      <trkpt lat="43.35146" lon="5.76431">
        <ele>469</ele>
        <time>2019-01-04T14:09:17Z</time>
      </trkpt>
      <trkpt lat="43.35145" lon="5.76425">
        <ele>468</ele>
        <time>2019-01-04T14:09:20Z</time>
      </trkpt>
      <trkpt lat="43.35137" lon="5.7642">
        <ele>460</ele>
        <time>2019-01-04T14:10:23Z</time>
      </trkpt>
      <trkpt lat="43.35129" lon="5.76416">
        <ele>460</ele>
        <time>2019-01-04T14:10:28Z</time>
      </trkpt>
      <trkpt lat="43.35102" lon="5.76435">
        <ele>460</ele>
        <time>2019-01-04T14:10:32Z</time>
      </trkpt>
      <trkpt lat="43.35034" lon="5.76484">
        <ele>460</ele>
        <time>2019-01-04T14:10:35Z</time>
      </trkpt>
      <trkpt lat="43.3475" lon="5.76406">
        <ele>460</ele>
        <time>2019-01-04T14:10:38Z</time>
      </trkpt>
      <trkpt lat="43.3462" lon="5.76302">
        <ele>460</ele>
        <time>2019-01-04T14:10:41Z</time>
      </trkpt>
      <trkpt lat="43.34767" lon="5.76407">
        <ele>459</ele>
        <time>2019-01-04T14:10:44Z</time>
      </trkpt>
      <trkpt lat="43.34943" lon="5.76417">
        <ele>459</ele>
        <time>2019-01-04T14:10:55Z</time>
      </trkpt>
      <trkpt lat="43.35101" lon="5.76046">
        <ele>459</ele>
        <time>2019-01-04T14:10:58Z</time>
      </trkpt>
      <trkpt lat="43.35118" lon="5.7613">
        <ele>458</ele>
        <time>2019-01-04T14:11:02Z</time>
      </trkpt>
      <trkpt lat="43.35162" lon="5.76153">
        <ele>458</ele>
        <time>2019-01-04T14:11:06Z</time>
      </trkpt>
      <trkpt lat="43.35163" lon="5.76154">
        <ele>458</ele>
        <time>2019-01-04T14:11:10Z</time>
      </trkpt>
      <trkpt lat="43.35163" lon="5.76151">
        <ele>457</ele>
        <time>2019-01-04T14:11:14Z</time>
      </trkpt>
      <trkpt lat="43.35158" lon="5.76152">
        <ele>457</ele>
        <time>2019-01-04T14:11:18Z</time>
      </trkpt>
      <trkpt lat="43.35156" lon="5.76151">
        <ele>456</ele>
        <time>2019-01-04T14:11:25Z</time>
      </trkpt>
      <trkpt lat="43.35153" lon="5.7615">
        <ele>456</ele>
        <time>2019-01-04T14:11:29Z</time>
      </trkpt>
      <trkpt lat="43.35156" lon="5.76152">
        <ele>456</ele>
        <time>2019-01-04T14:11:34Z</time>
      </trkpt>
      <trkpt lat="43.35158" lon="5.76152">
        <ele>441</ele>
        <time>2019-01-04T14:16:47Z</time>
      </trkpt>
      <trkpt lat="43.35164" lon="5.76151">
        <ele>440</ele>
        <time>2019-01-04T14:17:06Z</time>
      </trkpt>
      <trkpt lat="43.35166" lon="5.76145">
        <ele>439</ele>
        <time>2019-01-04T14:17:10Z</time>
      </trkpt>
      <trkpt lat="43.35168" lon="5.76138">
        <ele>439</ele>
        <time>2019-01-04T14:17:15Z</time>
      </trkpt>
      <trkpt lat="43.35171" lon="5.76132">
        <ele>439</ele>
        <time>2019-01-04T14:17:19Z</time>
      </trkpt>
      <trkpt lat="43.35175" lon="5.76126">
        <ele>439</ele>
        <time>2019-01-04T14:17:24Z</time>
      </trkpt>
      <trkpt lat="43.35178" lon="5.76121">
        <ele>439</ele>
        <time>2019-01-04T14:17:28Z</time>
      </trkpt>
      <trkpt lat="43.35183" lon="5.76117">
        <ele>439</ele>
        <time>2019-01-04T14:17:32Z</time>
      </trkpt>
      <trkpt lat="43.35185" lon="5.76112">
        <ele>440</ele>
        <time>2019-01-04T14:17:36Z</time>
      </trkpt>
      <trkpt lat="43.35189" lon="5.76109">
        <ele>440</ele>
        <time>2019-01-04T14:17:40Z</time>
      </trkpt>
      <trkpt lat="43.35193" lon="5.76104">
        <ele>440</ele>
        <time>2019-01-04T14:17:44Z</time>
      </trkpt>
      <trkpt lat="43.35196" lon="5.76098">
        <ele>440</ele>
        <time>2019-01-04T14:17:49Z</time>
      </trkpt>
      <trkpt lat="43.35199" lon="5.76091">
        <ele>440</ele>
        <time>2019-01-04T14:17:53Z</time>
      </trkpt>
      <trkpt lat="43.35202" lon="5.76085">
        <ele>441</ele>
        <time>2019-01-04T14:17:57Z</time>
      </trkpt>
      <trkpt lat="43.35204" lon="5.7608">
        <ele>441</ele>
        <time>2019-01-04T14:18:01Z</time>
      </trkpt>
      <trkpt lat="43.35207" lon="5.76073">
        <ele>441</ele>
        <time>2019-01-04T14:18:06Z</time>
      </trkpt>
      <trkpt lat="43.35208" lon="5.76068">
        <ele>440</ele>
        <time>2019-01-04T14:18:10Z</time>
      </trkpt>
      <trkpt lat="43.3521" lon="5.76062">
        <ele>439</ele>
        <time>2019-01-04T14:18:14Z</time>
      </trkpt>
      <trkpt lat="43.35213" lon="5.76056">
        <ele>438</ele>
        <time>2019-01-04T14:18:18Z</time>
      </trkpt>
      <trkpt lat="43.35216" lon="5.76052">
        <ele>437</ele>
        <time>2019-01-04T14:18:22Z</time>
      </trkpt>
      <trkpt lat="43.3522" lon="5.76046">
        <ele>437</ele>
        <time>2019-01-04T14:18:27Z</time>
      </trkpt>
      <trkpt lat="43.35222" lon="5.76041">
        <ele>436</ele>
        <time>2019-01-04T14:18:31Z</time>
      </trkpt>
      <trkpt lat="43.35226" lon="5.76036">
        <ele>436</ele>
        <time>2019-01-04T14:18:36Z</time>
      </trkpt>
      <trkpt lat="43.35321" lon="5.75952">
        <ele>420</ele>
        <time>2019-01-04T14:25:04Z</time>
      </trkpt>
      <trkpt lat="43.35327" lon="5.75949">
        <ele>419</ele>
        <time>2019-01-04T14:25:10Z</time>
      </trkpt>
      <trkpt lat="43.35332" lon="5.7595">
        <ele>415</ele>
        <time>2019-01-04T14:25:17Z</time>
      </trkpt>
      <trkpt lat="43.35337" lon="5.75949">
        <ele>414</ele>
        <time>2019-01-04T14:25:22Z</time>
      </trkpt>
      <trkpt lat="43.35342" lon="5.75947">
        <ele>415</ele>
        <time>2019-01-04T14:25:27Z</time>
      </trkpt>
      <trkpt lat="43.35347" lon="5.75945">
        <ele>415</ele>
        <time>2019-01-04T14:25:33Z</time>
      </trkpt>
      <trkpt lat="43.35352" lon="5.75943">
        <ele>415</ele>
        <time>2019-01-04T14:25:38Z</time>
      </trkpt>
      <trkpt lat="43.35356" lon="5.75943">
        <ele>415</ele>
        <time>2019-01-04T14:25:45Z</time>
      </trkpt>
      <trkpt lat="43.35361" lon="5.75942">
        <ele>415</ele>
        <time>2019-01-04T14:25:51Z</time>
      </trkpt>
      <trkpt lat="43.35366" lon="5.75939">
        <ele>416</ele>
        <time>2019-01-04T14:25:57Z</time>
      </trkpt>
      <trkpt lat="43.3537" lon="5.75935">
        <ele>416</ele>
        <time>2019-01-04T14:26:02Z</time>
      </trkpt>
      <trkpt lat="43.35374" lon="5.75932">
        <ele>418</ele>
        <time>2019-01-04T14:26:06Z</time>
      </trkpt>
      <trkpt lat="43.35379" lon="5.75929">
        <ele>419</ele>
        <time>2019-01-04T14:26:10Z</time>
      </trkpt>
      <trkpt lat="43.35384" lon="5.75925">
        <ele>420</ele>
        <time>2019-01-04T14:26:14Z</time>
      </trkpt>
      <trkpt lat="43.35389" lon="5.75922">
        <ele>420</ele>
        <time>2019-01-04T14:26:18Z</time>
      </trkpt>
      <trkpt lat="43.35392" lon="5.75917">
        <ele>421</ele>
        <time>2019-01-04T14:26:22Z</time>
      </trkpt>
      <trkpt lat="43.35395" lon="5.75913">
        <ele>421</ele>
        <time>2019-01-04T14:26:26Z</time>
      </trkpt>
      <trkpt lat="43.35398" lon="5.75908">
        <ele>421</ele>
        <time>2019-01-04T14:26:30Z</time>
      </trkpt>
      <trkpt lat="43.35401" lon="5.75903">
        <ele>421</ele>
        <time>2019-01-04T14:26:34Z</time>
      </trkpt>
      <trkpt lat="43.35404" lon="5.75898">
        <ele>421</ele>
        <time>2019-01-04T14:26:38Z</time>
      </trkpt>
      <trkpt lat="43.35408" lon="5.75892">
        <ele>420</ele>
        <time>2019-01-04T14:26:43Z</time>
      </trkpt>
      <trkpt lat="43.35411" lon="5.75888">
        <ele>420</ele>
        <time>2019-01-04T14:26:47Z</time>
      </trkpt>
      <trkpt lat="43.35414" lon="5.75882">
        <ele>420</ele>
        <time>2019-01-04T14:26:51Z</time>
      </trkpt>
      <trkpt lat="43.35417" lon="5.75877">
        <ele>420</ele>
        <time>2019-01-04T14:26:55Z</time>
      </trkpt>
      <trkpt lat="43.3542" lon="5.75872">
        <ele>420</ele>
        <time>2019-01-04T14:26:59Z</time>
      </trkpt>
      <trkpt lat="43.35423" lon="5.75868">
        <ele>420</ele>
        <time>2019-01-04T14:27:03Z</time>
      </trkpt>
      <trkpt lat="43.35426" lon="5.75861">
        <ele>420</ele>
        <time>2019-01-04T14:27:08Z</time>
      </trkpt>
      <trkpt lat="43.3543" lon="5.75856">
        <ele>419</ele>
        <time>2019-01-04T14:27:12Z</time>
      </trkpt>
      <trkpt lat="43.35434" lon="5.75852">
        <ele>419</ele>
        <time>2019-01-04T14:27:17Z</time>
      </trkpt>
      <trkpt lat="43.35437" lon="5.75846">
        <ele>419</ele>
        <time>2019-01-04T14:27:22Z</time>
      </trkpt>
      <trkpt lat="43.35441" lon="5.75842">
        <ele>419</ele>
        <time>2019-01-04T14:27:26Z</time>
      </trkpt>
      <trkpt lat="43.35445" lon="5.75838">
        <ele>418</ele>
        <time>2019-01-04T14:27:30Z</time>
      </trkpt>
      <trkpt lat="43.35449" lon="5.75834">
        <ele>418</ele>
        <time>2019-01-04T14:27:35Z</time>
      </trkpt>
      <trkpt lat="43.35453" lon="5.75829">
        <ele>418</ele>
        <time>2019-01-04T14:27:41Z</time>
      </trkpt>
      <trkpt lat="43.35457" lon="5.75825">
        <ele>418</ele>
        <time>2019-01-04T14:27:47Z</time>
      </trkpt>
      <trkpt lat="43.3546" lon="5.75821">
        <ele>417</ele>
        <time>2019-01-04T14:27:51Z</time>
      </trkpt>
      <trkpt lat="43.35465" lon="5.75816">
        <ele>418</ele>
        <time>2019-01-04T14:27:55Z</time>
      </trkpt>
      <trkpt lat="43.35469" lon="5.75812">
        <ele>418</ele>
        <time>2019-01-04T14:27:58Z</time>
      </trkpt>
      <trkpt lat="43.35471" lon="5.75806">
        <ele>418</ele>
        <time>2019-01-04T14:28:04Z</time>
      </trkpt>
      <trkpt lat="43.35475" lon="5.75801">
        <ele>418</ele>
        <time>2019-01-04T14:28:08Z</time>
      </trkpt>
      <trkpt lat="43.3548" lon="5.758">
        <ele>419</ele>
        <time>2019-01-04T14:28:12Z</time>
      </trkpt>
      <trkpt lat="43.35485" lon="5.75798">
        <ele>420</ele>
        <time>2019-01-04T14:28:17Z</time>
      </trkpt>
      <trkpt lat="43.35489" lon="5.75794">
        <ele>420</ele>
        <time>2019-01-04T14:28:22Z</time>
      </trkpt>
      <trkpt lat="43.35493" lon="5.75789">
        <ele>421</ele>
        <time>2019-01-04T14:28:27Z</time>
      </trkpt>
      <trkpt lat="43.35498" lon="5.75786">
        <ele>422</ele>
        <time>2019-01-04T14:28:32Z</time>
      </trkpt>
      <trkpt lat="43.35503" lon="5.75784">
        <ele>423</ele>
        <time>2019-01-04T14:28:36Z</time>
      </trkpt>
      <trkpt lat="43.35508" lon="5.75781">
        <ele>423</ele>
        <time>2019-01-04T14:28:40Z</time>
      </trkpt>
      <trkpt lat="43.35512" lon="5.75779">
        <ele>423</ele>
        <time>2019-01-04T14:28:44Z</time>
      </trkpt>
      <trkpt lat="43.35518" lon="5.75776">
        <ele>423</ele>
        <time>2019-01-04T14:28:49Z</time>
      </trkpt>
      <trkpt lat="43.35523" lon="5.75773">
        <ele>423</ele>
        <time>2019-01-04T14:28:53Z</time>
      </trkpt>
      <trkpt lat="43.35528" lon="5.75772">
        <ele>423</ele>
        <time>2019-01-04T14:28:58Z</time>
      </trkpt>
      <trkpt lat="43.35533" lon="5.7577">
        <ele>422</ele>
        <time>2019-01-04T14:29:02Z</time>
      </trkpt>
      <trkpt lat="43.35537" lon="5.75768">
        <ele>421</ele>
        <time>2019-01-04T14:29:06Z</time>
      </trkpt>
      <trkpt lat="43.35542" lon="5.75763">
        <ele>421</ele>
        <time>2019-01-04T14:29:15Z</time>
      </trkpt>
      <trkpt lat="43.35545" lon="5.75759">
        <ele>420</ele>
        <time>2019-01-04T14:29:19Z</time>
      </trkpt>
      <trkpt lat="43.3555" lon="5.75755">
        <ele>420</ele>
        <time>2019-01-04T14:29:23Z</time>
      </trkpt>
      <trkpt lat="43.35554" lon="5.75752">
        <ele>420</ele>
        <time>2019-01-04T14:29:27Z</time>
      </trkpt>
      <trkpt lat="43.35557" lon="5.75747">
        <ele>421</ele>
        <time>2019-01-04T14:29:32Z</time>
      </trkpt>
      <trkpt lat="43.35561" lon="5.75743">
        <ele>421</ele>
        <time>2019-01-04T14:29:37Z</time>
      </trkpt>
      <trkpt lat="43.35566" lon="5.7574">
        <ele>421</ele>
        <time>2019-01-04T14:29:42Z</time>
      </trkpt>
      <trkpt lat="43.35572" lon="5.75738">
        <ele>421</ele>
        <time>2019-01-04T14:29:45Z</time>
      </trkpt>
      <trkpt lat="43.35577" lon="5.75735">
        <ele>421</ele>
        <time>2019-01-04T14:29:48Z</time>
      </trkpt>
      <trkpt lat="43.35581" lon="5.75732">
        <ele>421</ele>
        <time>2019-01-04T14:29:52Z</time>
      </trkpt>
      <trkpt lat="43.35587" lon="5.7573">
        <ele>421</ele>
        <time>2019-01-04T14:29:58Z</time>
      </trkpt>
      <trkpt lat="43.35591" lon="5.75726">
        <ele>421</ele>
        <time>2019-01-04T14:30:02Z</time>
      </trkpt>
      <trkpt lat="43.35596" lon="5.75722">
        <ele>421</ele>
        <time>2019-01-04T14:30:06Z</time>
      </trkpt>
      <trkpt lat="43.35598" lon="5.75716">
        <ele>420</ele>
        <time>2019-01-04T14:30:11Z</time>
      </trkpt>
      <trkpt lat="43.35601" lon="5.7571">
        <ele>419</ele>
        <time>2019-01-04T14:30:16Z</time>
      </trkpt>
      <trkpt lat="43.35605" lon="5.75706">
        <ele>418</ele>
        <time>2019-01-04T14:30:19Z</time>
      </trkpt>
      <trkpt lat="43.35608" lon="5.75702">
        <ele>417</ele>
        <time>2019-01-04T14:30:24Z</time>
      </trkpt>
      <trkpt lat="43.35612" lon="5.75698">
        <ele>416</ele>
        <time>2019-01-04T14:30:27Z</time>
      </trkpt>
      <trkpt lat="43.35616" lon="5.75693">
        <ele>416</ele>
        <time>2019-01-04T14:30:32Z</time>
      </trkpt>
      <trkpt lat="43.3562" lon="5.75689">
        <ele>416</ele>
        <time>2019-01-04T14:30:37Z</time>
      </trkpt>
      <trkpt lat="43.35624" lon="5.75686">
        <ele>416</ele>
        <time>2019-01-04T14:30:44Z</time>
      </trkpt>
      <trkpt lat="43.35628" lon="5.75682">
        <ele>415</ele>
        <time>2019-01-04T14:30:49Z</time>
      </trkpt>
      <trkpt lat="43.35632" lon="5.75678">
        <ele>415</ele>
        <time>2019-01-04T14:30:53Z</time>
      </trkpt>
      <trkpt lat="43.35635" lon="5.75673">
        <ele>415</ele>
        <time>2019-01-04T14:30:57Z</time>
      </trkpt>
      <trkpt lat="43.35638" lon="5.75667">
        <ele>415</ele>
        <time>2019-01-04T14:31:03Z</time>
      </trkpt>
      <trkpt lat="43.35641" lon="5.75662">
        <ele>416</ele>
        <time>2019-01-04T14:31:07Z</time>
      </trkpt>
      <trkpt lat="43.35645" lon="5.75659">
        <ele>416</ele>
        <time>2019-01-04T14:31:10Z</time>
      </trkpt>
      <trkpt lat="43.3565" lon="5.75655">
        <ele>417</ele>
        <time>2019-01-04T14:31:14Z</time>
      </trkpt>
      <trkpt lat="43.35654" lon="5.75654">
        <ele>416</ele>
        <time>2019-01-04T14:31:20Z</time>
      </trkpt>
      <trkpt lat="43.35659" lon="5.75651">
        <ele>416</ele>
        <time>2019-01-04T14:31:25Z</time>
      </trkpt>
      <trkpt lat="43.35664" lon="5.75648">
        <ele>415</ele>
        <time>2019-01-04T14:31:30Z</time>
      </trkpt>
      <trkpt lat="43.35668" lon="5.75644">
        <ele>414</ele>
        <time>2019-01-04T14:31:35Z</time>
      </trkpt>
      <trkpt lat="43.35672" lon="5.75641">
        <ele>413</ele>
        <time>2019-01-04T14:31:39Z</time>
      </trkpt>
      <trkpt lat="43.35677" lon="5.7564">
        <ele>412</ele>
        <time>2019-01-04T14:31:42Z</time>
      </trkpt>
      <trkpt lat="43.35682" lon="5.75641">
        <ele>412</ele>
        <time>2019-01-04T14:31:47Z</time>
      </trkpt>
      <trkpt lat="43.35687" lon="5.75638">
        <ele>412</ele>
        <time>2019-01-04T14:31:51Z</time>
      </trkpt>
      <trkpt lat="43.35691" lon="5.75634">
        <ele>412</ele>
        <time>2019-01-04T14:31:55Z</time>
      </trkpt>
      <trkpt lat="43.35696" lon="5.7563">
        <ele>412</ele>
        <time>2019-01-04T14:32:01Z</time>
      </trkpt>
      <trkpt lat="43.35701" lon="5.75629">
        <ele>413</ele>
        <time>2019-01-04T14:32:05Z</time>
      </trkpt>
      <trkpt lat="43.35706" lon="5.7563">
        <ele>413</ele>
        <time>2019-01-04T14:32:10Z</time>
      </trkpt>
      <trkpt lat="43.35711" lon="5.75627">
        <ele>413</ele>
        <time>2019-01-04T14:32:14Z</time>
      </trkpt>
      <trkpt lat="43.35715" lon="5.75624">
        <ele>414</ele>
        <time>2019-01-04T14:32:18Z</time>
      </trkpt>
      <trkpt lat="43.3572" lon="5.75622">
        <ele>414</ele>
        <time>2019-01-04T14:32:23Z</time>
      </trkpt>
      <trkpt lat="43.35723" lon="5.75618">
        <ele>414</ele>
        <time>2019-01-04T14:32:27Z</time>
      </trkpt>
      <trkpt lat="43.35725" lon="5.75611">
        <ele>413</ele>
        <time>2019-01-04T14:32:32Z</time>
      </trkpt>
      <trkpt lat="43.35729" lon="5.75604">
        <ele>413</ele>
        <time>2019-01-04T14:32:36Z</time>
      </trkpt>
      <trkpt lat="43.3573" lon="5.75598">
        <ele>413</ele>
        <time>2019-01-04T14:32:39Z</time>
      </trkpt>
      <trkpt lat="43.35732" lon="5.75591">
        <ele>412</ele>
        <time>2019-01-04T14:32:44Z</time>
      </trkpt>
      <trkpt lat="43.35734" lon="5.75585">
        <ele>412</ele>
        <time>2019-01-04T14:32:48Z</time>
      </trkpt>
      <trkpt lat="43.35736" lon="5.7558">
        <ele>412</ele>
        <time>2019-01-04T14:32:51Z</time>
      </trkpt>
      <trkpt lat="43.3574" lon="5.75575">
        <ele>412</ele>
        <time>2019-01-04T14:32:55Z</time>
      </trkpt>
      <trkpt lat="43.35745" lon="5.7557">
        <ele>412</ele>
        <time>2019-01-04T14:32:59Z</time>
      </trkpt>
      <trkpt lat="43.35749" lon="5.75566">
        <ele>412</ele>
        <time>2019-01-04T14:33:04Z</time>
      </trkpt>
      <trkpt lat="43.35751" lon="5.7556">
        <ele>412</ele>
        <time>2019-01-04T14:33:07Z</time>
      </trkpt>
      <trkpt lat="43.35753" lon="5.75554">
        <ele>412</ele>
        <time>2019-01-04T14:33:12Z</time>
      </trkpt>
      <trkpt lat="43.35757" lon="5.75551">
        <ele>411</ele>
        <time>2019-01-04T14:33:18Z</time>
      </trkpt>
      <trkpt lat="43.35762" lon="5.75546">
        <ele>411</ele>
        <time>2019-01-04T14:33:24Z</time>
      </trkpt>
      <trkpt lat="43.35764" lon="5.75542">
        <ele>411</ele>
        <time>2019-01-04T14:33:28Z</time>
      </trkpt>
      <trkpt lat="43.35767" lon="5.75535">
        <ele>411</ele>
        <time>2019-01-04T14:33:35Z</time>
      </trkpt>
      <trkpt lat="43.3577" lon="5.7553">
        <ele>411</ele>
        <time>2019-01-04T14:33:40Z</time>
      </trkpt>
      <trkpt lat="43.35771" lon="5.75524">
        <ele>411</ele>
        <time>2019-01-04T14:33:46Z</time>
      </trkpt>
      <trkpt lat="43.35772" lon="5.75517">
        <ele>411</ele>
        <time>2019-01-04T14:33:50Z</time>
      </trkpt>
      <trkpt lat="43.35776" lon="5.75511">
        <ele>411</ele>
        <time>2019-01-04T14:33:58Z</time>
      </trkpt>
      <trkpt lat="43.35779" lon="5.75507">
        <ele>411</ele>
        <time>2019-01-04T14:34:03Z</time>
      </trkpt>
      <trkpt lat="43.35783" lon="5.75504">
        <ele>411</ele>
        <time>2019-01-04T14:34:10Z</time>
      </trkpt>
      <trkpt lat="43.35786" lon="5.75499">
        <ele>411</ele>
        <time>2019-01-04T14:34:17Z</time>
      </trkpt>
      <trkpt lat="43.35788" lon="5.75493">
        <ele>411</ele>
        <time>2019-01-04T14:34:32Z</time>
      </trkpt>
      <trkpt lat="43.35791" lon="5.75487">
        <ele>411</ele>
        <time>2019-01-04T14:34:38Z</time>
      </trkpt>
      <trkpt lat="43.35794" lon="5.75482">
        <ele>411</ele>
        <time>2019-01-04T14:34:43Z</time>
      </trkpt>
      <trkpt lat="43.35797" lon="5.75477">
        <ele>411</ele>
        <time>2019-01-04T14:34:47Z</time>
      </trkpt>
      <trkpt lat="43.35798" lon="5.75471">
        <ele>410</ele>
        <time>2019-01-04T14:34:51Z</time>
      </trkpt>
      <trkpt lat="43.35801" lon="5.75466">
        <ele>410</ele>
        <time>2019-01-04T14:34:55Z</time>
      </trkpt>
      <trkpt lat="43.35804" lon="5.75461">
        <ele>409</ele>
        <time>2019-01-04T14:34:59Z</time>
      </trkpt>
      <trkpt lat="43.35808" lon="5.75455">
        <ele>409</ele>
        <time>2019-01-04T14:35:02Z</time>
      </trkpt>
      <trkpt lat="43.35811" lon="5.75448">
        <ele>408</ele>
        <time>2019-01-04T14:35:07Z</time>
      </trkpt>
      <trkpt lat="43.35813" lon="5.75443">
        <ele>408</ele>
        <time>2019-01-04T14:35:11Z</time>
      </trkpt>
      <trkpt lat="43.35818" lon="5.75439">
        <ele>408</ele>
        <time>2019-01-04T14:35:16Z</time>
      </trkpt>
      <trkpt lat="43.35821" lon="5.75433">
        <ele>408</ele>
        <time>2019-01-04T14:35:21Z</time>
      </trkpt>
      <trkpt lat="43.35823" lon="5.75427">
        <ele>408</ele>
        <time>2019-01-04T14:35:26Z</time>
      </trkpt>
      <trkpt lat="43.35827" lon="5.75422">
        <ele>407</ele>
        <time>2019-01-04T14:35:31Z</time>
      </trkpt>
      <trkpt lat="43.35829" lon="5.75416">
        <ele>407</ele>
        <time>2019-01-04T14:35:36Z</time>
      </trkpt>
      <trkpt lat="43.35833" lon="5.75412">
        <ele>406</ele>
        <time>2019-01-04T14:35:40Z</time>
      </trkpt>
      <trkpt lat="43.35838" lon="5.75409">
        <ele>406</ele>
        <time>2019-01-04T14:35:45Z</time>
      </trkpt>
      <trkpt lat="43.35841" lon="5.75404">
        <ele>405</ele>
        <time>2019-01-04T14:35:50Z</time>
      </trkpt>
      <trkpt lat="43.35844" lon="5.75398">
        <ele>405</ele>
        <time>2019-01-04T14:35:54Z</time>
      </trkpt>
      <trkpt lat="43.35848" lon="5.75394">
        <ele>405</ele>
        <time>2019-01-04T14:35:59Z</time>
      </trkpt>
      <trkpt lat="43.35851" lon="5.75389">
        <ele>406</ele>
        <time>2019-01-04T14:36:04Z</time>
      </trkpt>
      <trkpt lat="43.35856" lon="5.7539">
        <ele>406</ele>
        <time>2019-01-04T14:36:20Z</time>
      </trkpt>
      <trkpt lat="43.35861" lon="5.75387">
        <ele>407</ele>
        <time>2019-01-04T14:36:26Z</time>
      </trkpt>
      <trkpt lat="43.35863" lon="5.75382">
        <ele>407</ele>
        <time>2019-01-04T14:36:34Z</time>
      </trkpt>
      <trkpt lat="43.35865" lon="5.75375">
        <ele>408</ele>
        <time>2019-01-04T14:36:40Z</time>
      </trkpt>
      <trkpt lat="43.35869" lon="5.75371">
        <ele>408</ele>
        <time>2019-01-04T14:36:48Z</time>
      </trkpt>
      <trkpt lat="43.35872" lon="5.75366">
        <ele>408</ele>
        <time>2019-01-04T14:36:52Z</time>
      </trkpt>
      <trkpt lat="43.35876" lon="5.75361">
        <ele>408</ele>
        <time>2019-01-04T14:36:57Z</time>
      </trkpt>
      <trkpt lat="43.3588" lon="5.75357">
        <ele>409</ele>
        <time>2019-01-04T14:37:02Z</time>
      </trkpt>
      <trkpt lat="43.35884" lon="5.75352">
        <ele>409</ele>
        <time>2019-01-04T14:37:07Z</time>
      </trkpt>
      <trkpt lat="43.35886" lon="5.75347">
        <ele>409</ele>
        <time>2019-01-04T14:37:11Z</time>
      </trkpt>
      <trkpt lat="43.35889" lon="5.75341">
        <ele>410</ele>
        <time>2019-01-04T14:37:16Z</time>
      </trkpt>
      <trkpt lat="43.35894" lon="5.7534">
        <ele>410</ele>
        <time>2019-01-04T14:37:20Z</time>
      </trkpt>
      <trkpt lat="43.35899" lon="5.7534">
        <ele>411</ele>
        <time>2019-01-04T14:37:27Z</time>
      </trkpt>
      <trkpt lat="43.35903" lon="5.75343">
        <ele>411</ele>
        <time>2019-01-04T14:37:42Z</time>
      </trkpt>
      <trkpt lat="43.35904" lon="5.75344">
        <ele>411</ele>
        <time>2019-01-04T14:38:08Z</time>
      </trkpt>
      <trkpt lat="43.35906" lon="5.75336">
        <ele>412</ele>
        <time>2019-01-04T14:38:11Z</time>
      </trkpt>
      <trkpt lat="43.3591" lon="5.75342">
        <ele>412</ele>
        <time>2019-01-04T14:38:33Z</time>
      </trkpt>
      <trkpt lat="43.35911" lon="5.75344">
        <ele>411</ele>
        <time>2019-01-04T14:38:53Z</time>
      </trkpt>
      <trkpt lat="43.35913" lon="5.7534">
        <ele>412</ele>
        <time>2019-01-04T14:38:57Z</time>
      </trkpt>
      <trkpt lat="43.35907" lon="5.75343">
        <ele>411</ele>
        <time>2019-01-04T14:38:57Z</time>
      </trkpt>
      <trkpt lat="43.35911" lon="5.75346">
        <ele>409</ele>
        <time>2019-01-04T14:39:00Z</time>
      </trkpt>
      <trkpt lat="43.35916" lon="5.75346">
        <ele>408</ele>
        <time>2019-01-04T14:39:09Z</time>
      </trkpt>
      <trkpt lat="43.3592" lon="5.75345">
        <ele>409</ele>
        <time>2019-01-04T14:39:15Z</time>
      </trkpt>
      <trkpt lat="43.35925" lon="5.75347">
        <ele>407</ele>
        <time>2019-01-04T14:39:36Z</time>
      </trkpt>
      <trkpt lat="43.35931" lon="5.75348">
        <ele>408</ele>
        <time>2019-01-04T14:39:41Z</time>
      </trkpt>
      <trkpt lat="43.35934" lon="5.75343">
        <ele>410</ele>
        <time>2019-01-04T14:39:46Z</time>
      </trkpt>
      <trkpt lat="43.35933" lon="5.75342">
        <ele>410</ele>
        <time>2019-01-04T14:40:08Z</time>
      </trkpt>
      <trkpt lat="43.35929" lon="5.75339">
        <ele>410</ele>
        <time>2019-01-04T14:40:12Z</time>
      </trkpt>
      <trkpt lat="43.35935" lon="5.7535">
        <ele>408</ele>
        <time>2019-01-04T14:40:13Z</time>
      </trkpt>
      <trkpt lat="43.35931" lon="5.75334">
        <ele>407</ele>
        <time>2019-01-04T14:40:14Z</time>
      </trkpt>
      <trkpt lat="43.35935" lon="5.75337">
        <ele>405</ele>
        <time>2019-01-04T14:40:22Z</time>
      </trkpt>
      <trkpt lat="43.35958" lon="5.75461">
        <ele>432.22265625</ele>
      </trkpt>
      <trkpt lat="43.35924" lon="5.75569">
        <ele>439.9453125</ele>
      </trkpt>
      <trkpt lat="43.36024" lon="5.75899">
        <ele>485.8515625</ele>
      </trkpt>
      <trkpt lat="43.36059" lon="5.7601">
        <ele>500.59375</ele>
      </trkpt>
      <trkpt lat="43.36154" lon="5.76037">
        <ele>518.3671875</ele>
      </trkpt>
      <trkpt lat="43.36228" lon="5.76189">
        <ele>522.40625</ele>
      </trkpt>
      <trkpt lat="43.3625" lon="5.76215">
        <ele>520.90625</ele>
      </trkpt>
      <trkpt lat="43.36255" lon="5.76222">
        <ele>517.32421875</ele>
      </trkpt>
      <trkpt lat="43.36268" lon="5.7623">
        <ele>511.87109375</ele>
      </trkpt>
      <trkpt lat="43.36271" lon="5.76243">
        <ele>510.65234375</ele>
      </trkpt>
      <trkpt lat="43.36335" lon="5.76358">
        <ele>503.24609375</ele>
      </trkpt>
      <trkpt lat="43.36362" lon="5.76339">
        <ele>498.77734375</ele>
      </trkpt>
      <trkpt lat="43.36419" lon="5.76302">
        <ele>498.35546875</ele>
      </trkpt>
      <trkpt lat="43.36469" lon="5.76434">
        <ele>501.97265625</ele>
      </trkpt>
      <trkpt lat="43.3647" lon="5.76448">
        <ele>503.1015625</ele>
      </trkpt>
      <trkpt lat="43.36486" lon="5.76461">
        <ele>501.44921875</ele>
      </trkpt>
      <trkpt lat="43.36521" lon="5.7644">
        <ele>492.703125</ele>
      </trkpt>
      <trkpt lat="43.36551" lon="5.76444">
        <ele>487.625</ele>
      </trkpt>
      <trkpt lat="43.36585" lon="5.76494">
        <ele>485.515625</ele>
      </trkpt>
      <trkpt lat="43.36614" lon="5.76571">
        <ele>486.1328125</ele>
      </trkpt>
      <trkpt lat="43.36629" lon="5.76609">
        <ele>486.58203125</ele>
      </trkpt>
      <trkpt lat="43.36742" lon="5.76663">
        <ele>471.89453125</ele>
      </trkpt>
      <trkpt lat="43.36795" lon="5.76718">
        <ele>467.35546875</ele>
      </trkpt>
      <trkpt lat="43.36872" lon="5.76792">
        <ele>455.23046875</ele>
      </trkpt>
      <trkpt lat="43.36918" lon="5.76881">
        <ele>447.9921875</ele>
      </trkpt>
      <trkpt lat="43.3696" lon="5.76981">
        <ele>444.71484375</ele>
      </trkpt>
      <trkpt lat="43.37042" lon="5.77051">
        <ele>434.60546875</ele>
      </trkpt>
      <trkpt lat="43.37085" lon="5.77086">
        <ele>430.32421875</ele>
      </trkpt>
      <trkpt lat="43.37111" lon="5.77109">
        <ele>427.79296875</ele>
      </trkpt>
      <trkpt lat="43.37132" lon="5.77198">
        <ele>422.37890625</ele>
      </trkpt>
      <trkpt lat="43.37136" lon="5.77247">
        <ele>418.8515625</ele>
      </trkpt>
      <trkpt lat="43.37108" lon="5.7745">
        <ele>412.140625</ele>
      </trkpt>
      <trkpt lat="43.37093" lon="5.77593">
        <ele>408.63671875</ele>
      </trkpt>
      <trkpt lat="43.3717" lon="5.77613">
        <ele>405.765625</ele>
      </trkpt>
      <trkpt lat="43.37251" lon="5.77577">
        <ele>405.09765625</ele>
      </trkpt>
      <trkpt lat="43.37257" lon="5.77577">
        <ele>404.97265625</ele>
      </trkpt>
      <trkpt lat="43.37234" lon="5.77715">
        <ele>400.54296875</ele>
      </trkpt>
      <trkpt lat="43.3722" lon="5.77865">
        <ele>396.48828125</ele>
      </trkpt>
      <trkpt lat="43.37001" lon="5.7784">
        <ele>410.9296875</ele>
      </trkpt>
      <trkpt lat="43.36997" lon="5.77939">
        <ele>407.8359375</ele>
      </trkpt>
      <trkpt lat="43.37003" lon="5.78096">
        <ele>403.00390625</ele>
      </trkpt>
      <trkpt lat="43.36974" lon="5.78167">
        <ele>405.28125</ele>
      </trkpt>
      <trkpt lat="43.36812" lon="5.78091">
        <ele>417.66015625</ele>
      </trkpt>
      <trkpt lat="43.36628" lon="5.78057">
        <ele>426.22265625</ele>
      </trkpt>
    </trkseg>
  </trk>
</gpx>